<?xml version="1.0" encoding="UTF-8" standalone="no" ?>
<gpx xmlns="http://www.topografix.com/GPX/1/1" xmlns:xsi="http://www.w3.org/2001/XMLSchema-instance" xsi:schemaLocation="http://www.topografix.com/GPX/1/1 http://www.topografix.com/GPX/1/1/gpx.xsd" version="1.1" creator="VisuGPX - https://www.visugpx.com">
  <metadata>
    <name>Le pays de Vergy</name>
    <desc><![CDATA[Le parcours se fait en petite partie sur le GR7. Terrain boueux et glissant (réalisé le 14/02/2021) Parcours agréable on peut allonger ou raccourcir à volonté les chemins ne manquent pas.]]></desc>
  </metadata>
  <trk>
    <name><![CDATA[14 févr. 2021 14:21:40]]></name>
    <trkseg>
      <trkpt lat="47.18608" lon="4.89576">
        <ele>466</ele>
        <time>2021-02-14T13:21:43.587Z</time>
      </trkpt>
      <trkpt lat="47.18599" lon="4.89572">
        <ele>462</ele>
        <time>2021-02-14T13:22:00.000Z</time>
      </trkpt>
      <trkpt lat="47.1859" lon="4.89568">
        <ele>462</ele>
        <time>2021-02-14T13:22:10.000Z</time>
      </trkpt>
      <trkpt lat="47.1858" lon="4.89569">
        <ele>461</ele>
        <time>2021-02-14T13:22:24.000Z</time>
      </trkpt>
      <trkpt lat="47.18571" lon="4.89569">
        <ele>463</ele>
        <time>2021-02-14T13:22:31.000Z</time>
      </trkpt>
      <trkpt lat="47.18562" lon="4.89563">
        <ele>467</ele>
        <time>2021-02-14T13:22:39.000Z</time>
      </trkpt>
      <trkpt lat="47.18553" lon="4.89559">
        <ele>464</ele>
        <time>2021-02-14T13:22:50.000Z</time>
      </trkpt>
      <trkpt lat="47.18546" lon="4.8955">
        <ele>466</ele>
        <time>2021-02-14T13:23:03.000Z</time>
      </trkpt>
      <trkpt lat="47.18538" lon="4.89545">
        <ele>469</ele>
        <time>2021-02-14T13:23:27.000Z</time>
      </trkpt>
      <trkpt lat="47.18528" lon="4.8954">
        <ele>474</ele>
        <time>2021-02-14T13:23:37.000Z</time>
      </trkpt>
      <trkpt lat="47.18519" lon="4.89535">
        <ele>472</ele>
        <time>2021-02-14T13:23:45.000Z</time>
      </trkpt>
      <trkpt lat="47.1851" lon="4.89534">
        <ele>467</ele>
        <time>2021-02-14T13:23:56.000Z</time>
      </trkpt>
      <trkpt lat="47.185" lon="4.89528">
        <ele>466</ele>
        <time>2021-02-14T13:24:06.000Z</time>
      </trkpt>
      <trkpt lat="47.18491" lon="4.89526">
        <ele>467</ele>
        <time>2021-02-14T13:24:14.000Z</time>
      </trkpt>
      <trkpt lat="47.18483" lon="4.89518">
        <ele>470</ele>
        <time>2021-02-14T13:24:24.000Z</time>
      </trkpt>
      <trkpt lat="47.18478" lon="4.89505">
        <ele>470</ele>
        <time>2021-02-14T13:24:35.000Z</time>
      </trkpt>
      <trkpt lat="47.18469" lon="4.89498">
        <ele>466</ele>
        <time>2021-02-14T13:25:03.000Z</time>
      </trkpt>
      <trkpt lat="47.18461" lon="4.8949">
        <ele>467</ele>
        <time>2021-02-14T13:25:15.000Z</time>
      </trkpt>
      <trkpt lat="47.18458" lon="4.89475">
        <ele>467</ele>
        <time>2021-02-14T13:25:30.000Z</time>
      </trkpt>
      <trkpt lat="47.1845" lon="4.89469">
        <ele>469</ele>
        <time>2021-02-14T13:25:39.000Z</time>
      </trkpt>
      <trkpt lat="47.18443" lon="4.8946">
        <ele>468</ele>
        <time>2021-02-14T13:25:55.000Z</time>
      </trkpt>
      <trkpt lat="47.18438" lon="4.89472">
        <ele>477</ele>
        <time>2021-02-14T13:27:07.000Z</time>
      </trkpt>
      <trkpt lat="47.18433" lon="4.89459">
        <ele>476</ele>
        <time>2021-02-14T13:27:20.000Z</time>
      </trkpt>
      <trkpt lat="47.18427" lon="4.89448">
        <ele>478</ele>
        <time>2021-02-14T13:28:20.000Z</time>
      </trkpt>
      <trkpt lat="47.18419" lon="4.8944">
        <ele>479</ele>
        <time>2021-02-14T13:28:35.000Z</time>
      </trkpt>
      <trkpt lat="47.18412" lon="4.89427">
        <ele>482</ele>
        <time>2021-02-14T13:28:50.000Z</time>
      </trkpt>
      <trkpt lat="47.18407" lon="4.89416">
        <ele>481</ele>
        <time>2021-02-14T13:28:58.000Z</time>
      </trkpt>
      <trkpt lat="47.18399" lon="4.89404">
        <ele>481</ele>
        <time>2021-02-14T13:29:08.000Z</time>
      </trkpt>
      <trkpt lat="47.18394" lon="4.8939">
        <ele>476</ele>
        <time>2021-02-14T13:29:18.000Z</time>
      </trkpt>
      <trkpt lat="47.18389" lon="4.89376">
        <ele>474</ele>
        <time>2021-02-14T13:29:29.000Z</time>
      </trkpt>
      <trkpt lat="47.18387" lon="4.89362">
        <ele>473</ele>
        <time>2021-02-14T13:29:40.000Z</time>
      </trkpt>
      <trkpt lat="47.18383" lon="4.89348">
        <ele>475</ele>
        <time>2021-02-14T13:29:51.000Z</time>
      </trkpt>
      <trkpt lat="47.18375" lon="4.89337">
        <ele>476</ele>
        <time>2021-02-14T13:30:03.000Z</time>
      </trkpt>
      <trkpt lat="47.18371" lon="4.89323">
        <ele>473</ele>
        <time>2021-02-14T13:30:14.000Z</time>
      </trkpt>
      <trkpt lat="47.18362" lon="4.89311">
        <ele>473</ele>
        <time>2021-02-14T13:30:24.000Z</time>
      </trkpt>
      <trkpt lat="47.18354" lon="4.893">
        <ele>474</ele>
        <time>2021-02-14T13:30:33.000Z</time>
      </trkpt>
      <trkpt lat="47.18347" lon="4.89289">
        <ele>473</ele>
        <time>2021-02-14T13:30:42.000Z</time>
      </trkpt>
      <trkpt lat="47.18339" lon="4.89283">
        <ele>475</ele>
        <time>2021-02-14T13:30:53.000Z</time>
      </trkpt>
      <trkpt lat="47.18333" lon="4.8927">
        <ele>476</ele>
        <time>2021-02-14T13:31:05.000Z</time>
      </trkpt>
      <trkpt lat="47.18329" lon="4.89257">
        <ele>476</ele>
        <time>2021-02-14T13:31:16.000Z</time>
      </trkpt>
      <trkpt lat="47.18321" lon="4.89243">
        <ele>478</ele>
        <time>2021-02-14T13:31:26.000Z</time>
      </trkpt>
      <trkpt lat="47.18311" lon="4.89238">
        <ele>478</ele>
        <time>2021-02-14T13:31:35.000Z</time>
      </trkpt>
      <trkpt lat="47.18303" lon="4.89232">
        <ele>482</ele>
        <time>2021-02-14T13:31:43.000Z</time>
      </trkpt>
      <trkpt lat="47.18292" lon="4.89222">
        <ele>486</ele>
        <time>2021-02-14T13:31:55.000Z</time>
      </trkpt>
      <trkpt lat="47.18284" lon="4.89214">
        <ele>488</ele>
        <time>2021-02-14T13:32:04.000Z</time>
      </trkpt>
      <trkpt lat="47.18275" lon="4.89207">
        <ele>488</ele>
        <time>2021-02-14T13:32:12.000Z</time>
      </trkpt>
      <trkpt lat="47.18265" lon="4.89197">
        <ele>487</ele>
        <time>2021-02-14T13:32:21.000Z</time>
      </trkpt>
      <trkpt lat="47.18256" lon="4.89189">
        <ele>487</ele>
        <time>2021-02-14T13:32:29.000Z</time>
      </trkpt>
      <trkpt lat="47.18247" lon="4.89179">
        <ele>485</ele>
        <time>2021-02-14T13:32:38.000Z</time>
      </trkpt>
      <trkpt lat="47.18239" lon="4.89173">
        <ele>483</ele>
        <time>2021-02-14T13:32:44.000Z</time>
      </trkpt>
      <trkpt lat="47.18231" lon="4.89163">
        <ele>483</ele>
        <time>2021-02-14T13:32:54.000Z</time>
      </trkpt>
      <trkpt lat="47.18222" lon="4.89152">
        <ele>483</ele>
        <time>2021-02-14T13:33:03.000Z</time>
      </trkpt>
      <trkpt lat="47.18213" lon="4.89144">
        <ele>486</ele>
        <time>2021-02-14T13:33:11.000Z</time>
      </trkpt>
      <trkpt lat="47.18205" lon="4.89134">
        <ele>487</ele>
        <time>2021-02-14T13:33:18.000Z</time>
      </trkpt>
      <trkpt lat="47.18196" lon="4.89126">
        <ele>486</ele>
        <time>2021-02-14T13:33:27.000Z</time>
      </trkpt>
      <trkpt lat="47.18189" lon="4.89116">
        <ele>489</ele>
        <time>2021-02-14T13:33:35.000Z</time>
      </trkpt>
      <trkpt lat="47.1818" lon="4.89105">
        <ele>487</ele>
        <time>2021-02-14T13:33:44.000Z</time>
      </trkpt>
      <trkpt lat="47.18171" lon="4.89096">
        <ele>489</ele>
        <time>2021-02-14T13:33:54.000Z</time>
      </trkpt>
      <trkpt lat="47.18164" lon="4.89086">
        <ele>488</ele>
        <time>2021-02-14T13:34:03.000Z</time>
      </trkpt>
      <trkpt lat="47.18156" lon="4.89076">
        <ele>489</ele>
        <time>2021-02-14T13:34:12.000Z</time>
      </trkpt>
      <trkpt lat="47.18146" lon="4.89069">
        <ele>494</ele>
        <time>2021-02-14T13:34:22.000Z</time>
      </trkpt>
      <trkpt lat="47.18137" lon="4.89061">
        <ele>494</ele>
        <time>2021-02-14T13:34:31.000Z</time>
      </trkpt>
      <trkpt lat="47.18128" lon="4.89053">
        <ele>494</ele>
        <time>2021-02-14T13:34:39.000Z</time>
      </trkpt>
      <trkpt lat="47.18121" lon="4.89042">
        <ele>490</ele>
        <time>2021-02-14T13:35:02.000Z</time>
      </trkpt>
      <trkpt lat="47.1811" lon="4.89037">
        <ele>494</ele>
        <time>2021-02-14T13:35:12.000Z</time>
      </trkpt>
      <trkpt lat="47.18101" lon="4.89035">
        <ele>495</ele>
        <time>2021-02-14T13:35:27.000Z</time>
      </trkpt>
      <trkpt lat="47.18092" lon="4.89028">
        <ele>503</ele>
        <time>2021-02-14T13:35:38.000Z</time>
      </trkpt>
      <trkpt lat="47.18084" lon="4.89021">
        <ele>506</ele>
        <time>2021-02-14T13:35:48.000Z</time>
      </trkpt>
      <trkpt lat="47.18076" lon="4.89011">
        <ele>502</ele>
        <time>2021-02-14T13:36:00.000Z</time>
      </trkpt>
      <trkpt lat="47.18066" lon="4.89004">
        <ele>502</ele>
        <time>2021-02-14T13:36:14.000Z</time>
      </trkpt>
      <trkpt lat="47.18056" lon="4.88999">
        <ele>502</ele>
        <time>2021-02-14T13:36:29.000Z</time>
      </trkpt>
      <trkpt lat="47.18046" lon="4.88992">
        <ele>508</ele>
        <time>2021-02-14T13:36:46.000Z</time>
      </trkpt>
      <trkpt lat="47.18036" lon="4.88986">
        <ele>510</ele>
        <time>2021-02-14T13:36:58.000Z</time>
      </trkpt>
      <trkpt lat="47.18027" lon="4.88987">
        <ele>514</ele>
        <time>2021-02-14T13:37:09.000Z</time>
      </trkpt>
      <trkpt lat="47.18018" lon="4.88994">
        <ele>517</ele>
        <time>2021-02-14T13:37:19.000Z</time>
      </trkpt>
      <trkpt lat="47.18009" lon="4.88996">
        <ele>515</ele>
        <time>2021-02-14T13:37:31.000Z</time>
      </trkpt>
      <trkpt lat="47.18003" lon="4.89006">
        <ele>517</ele>
        <time>2021-02-14T13:37:43.000Z</time>
      </trkpt>
      <trkpt lat="47.17997" lon="4.89017">
        <ele>520</ele>
        <time>2021-02-14T13:37:51.000Z</time>
      </trkpt>
      <trkpt lat="47.17989" lon="4.89024">
        <ele>519</ele>
        <time>2021-02-14T13:37:59.000Z</time>
      </trkpt>
      <trkpt lat="47.17979" lon="4.89024">
        <ele>529</ele>
        <time>2021-02-14T13:38:12.000Z</time>
      </trkpt>
      <trkpt lat="47.17968" lon="4.89029">
        <ele>531</ele>
        <time>2021-02-14T13:38:29.000Z</time>
      </trkpt>
      <trkpt lat="47.1796" lon="4.89024">
        <ele>533</ele>
        <time>2021-02-14T13:38:44.000Z</time>
      </trkpt>
      <trkpt lat="47.17949" lon="4.89022">
        <ele>532</ele>
        <time>2021-02-14T13:38:57.000Z</time>
      </trkpt>
      <trkpt lat="47.1794" lon="4.8902">
        <ele>534</ele>
        <time>2021-02-14T13:39:06.000Z</time>
      </trkpt>
      <trkpt lat="47.1793" lon="4.89021">
        <ele>538</ele>
        <time>2021-02-14T13:39:17.000Z</time>
      </trkpt>
      <trkpt lat="47.1792" lon="4.89019">
        <ele>536</ele>
        <time>2021-02-14T13:39:27.000Z</time>
      </trkpt>
      <trkpt lat="47.17918" lon="4.89005">
        <ele>547</ele>
        <time>2021-02-14T13:40:01.000Z</time>
      </trkpt>
      <trkpt lat="47.17908" lon="4.88998">
        <ele>544</ele>
        <time>2021-02-14T13:40:16.000Z</time>
      </trkpt>
      <trkpt lat="47.1791" lon="4.88985">
        <ele>547</ele>
        <time>2021-02-14T13:40:45.000Z</time>
      </trkpt>
      <trkpt lat="47.17918" lon="4.88978">
        <ele>547</ele>
        <time>2021-02-14T13:40:59.000Z</time>
      </trkpt>
      <trkpt lat="47.17927" lon="4.88979">
        <ele>549</ele>
        <time>2021-02-14T13:41:12.000Z</time>
      </trkpt>
      <trkpt lat="47.17932" lon="4.88968">
        <ele>550</ele>
        <time>2021-02-14T13:41:29.000Z</time>
      </trkpt>
      <trkpt lat="47.17926" lon="4.88957">
        <ele>549</ele>
        <time>2021-02-14T13:41:44.000Z</time>
      </trkpt>
      <trkpt lat="47.17918" lon="4.88951">
        <ele>549</ele>
        <time>2021-02-14T13:41:55.000Z</time>
      </trkpt>
      <trkpt lat="47.17911" lon="4.88944">
        <ele>551</ele>
        <time>2021-02-14T13:42:06.000Z</time>
      </trkpt>
      <trkpt lat="47.17903" lon="4.88934">
        <ele>556</ele>
        <time>2021-02-14T13:42:21.000Z</time>
      </trkpt>
      <trkpt lat="47.17901" lon="4.88919">
        <ele>554</ele>
        <time>2021-02-14T13:42:31.000Z</time>
      </trkpt>
      <trkpt lat="47.17895" lon="4.88907">
        <ele>553</ele>
        <time>2021-02-14T13:42:40.000Z</time>
      </trkpt>
      <trkpt lat="47.17887" lon="4.88898">
        <ele>552</ele>
        <time>2021-02-14T13:42:52.000Z</time>
      </trkpt>
      <trkpt lat="47.17878" lon="4.88893">
        <ele>554</ele>
        <time>2021-02-14T13:43:00.000Z</time>
      </trkpt>
      <trkpt lat="47.17869" lon="4.88884">
        <ele>549</ele>
        <time>2021-02-14T13:43:59.000Z</time>
      </trkpt>
      <trkpt lat="47.17858" lon="4.88881">
        <ele>547</ele>
        <time>2021-02-14T13:44:18.000Z</time>
      </trkpt>
      <trkpt lat="47.17848" lon="4.88882">
        <ele>547</ele>
        <time>2021-02-14T13:45:20.000Z</time>
      </trkpt>
      <trkpt lat="47.17842" lon="4.88892">
        <ele>548</ele>
        <time>2021-02-14T13:45:53.000Z</time>
      </trkpt>
      <trkpt lat="47.17832" lon="4.8889">
        <ele>547</ele>
        <time>2021-02-14T13:46:02.000Z</time>
      </trkpt>
      <trkpt lat="47.17823" lon="4.88881">
        <ele>551</ele>
        <time>2021-02-14T13:46:13.000Z</time>
      </trkpt>
      <trkpt lat="47.17815" lon="4.88875">
        <ele>556</ele>
        <time>2021-02-14T13:46:25.000Z</time>
      </trkpt>
      <trkpt lat="47.17807" lon="4.88867">
        <ele>556</ele>
        <time>2021-02-14T13:46:31.000Z</time>
      </trkpt>
      <trkpt lat="47.17798" lon="4.88865">
        <ele>553</ele>
        <time>2021-02-14T13:46:37.000Z</time>
      </trkpt>
      <trkpt lat="47.17788" lon="4.88859">
        <ele>553</ele>
        <time>2021-02-14T13:46:46.000Z</time>
      </trkpt>
      <trkpt lat="47.17778" lon="4.88855">
        <ele>552</ele>
        <time>2021-02-14T13:46:58.000Z</time>
      </trkpt>
      <trkpt lat="47.17769" lon="4.88846">
        <ele>557</ele>
        <time>2021-02-14T13:47:10.000Z</time>
      </trkpt>
      <trkpt lat="47.17759" lon="4.88837">
        <ele>552</ele>
        <time>2021-02-14T13:47:32.000Z</time>
      </trkpt>
      <trkpt lat="47.1775" lon="4.8883">
        <ele>553</ele>
        <time>2021-02-14T13:47:39.000Z</time>
      </trkpt>
      <trkpt lat="47.17741" lon="4.88834">
        <ele>555</ele>
        <time>2021-02-14T13:47:49.000Z</time>
      </trkpt>
      <trkpt lat="47.1773" lon="4.88831">
        <ele>549</ele>
        <time>2021-02-14T13:47:58.000Z</time>
      </trkpt>
      <trkpt lat="47.17721" lon="4.88825">
        <ele>551</ele>
        <time>2021-02-14T13:48:07.000Z</time>
      </trkpt>
      <trkpt lat="47.1771" lon="4.8882">
        <ele>548</ele>
        <time>2021-02-14T13:48:16.000Z</time>
      </trkpt>
      <trkpt lat="47.17701" lon="4.88819">
        <ele>549</ele>
        <time>2021-02-14T13:48:25.000Z</time>
      </trkpt>
      <trkpt lat="47.17691" lon="4.88817">
        <ele>551</ele>
        <time>2021-02-14T13:48:34.000Z</time>
      </trkpt>
      <trkpt lat="47.1768" lon="4.88818">
        <ele>554</ele>
        <time>2021-02-14T13:48:45.000Z</time>
      </trkpt>
      <trkpt lat="47.17672" lon="4.88806">
        <ele>555</ele>
        <time>2021-02-14T13:48:54.000Z</time>
      </trkpt>
      <trkpt lat="47.17664" lon="4.88797">
        <ele>550</ele>
        <time>2021-02-14T13:49:03.000Z</time>
      </trkpt>
      <trkpt lat="47.17655" lon="4.88794">
        <ele>550</ele>
        <time>2021-02-14T13:49:12.000Z</time>
      </trkpt>
      <trkpt lat="47.17647" lon="4.88786">
        <ele>550</ele>
        <time>2021-02-14T13:49:21.000Z</time>
      </trkpt>
      <trkpt lat="47.17639" lon="4.88778">
        <ele>548</ele>
        <time>2021-02-14T13:49:30.000Z</time>
      </trkpt>
      <trkpt lat="47.1763" lon="4.88773">
        <ele>548</ele>
        <time>2021-02-14T13:49:39.000Z</time>
      </trkpt>
      <trkpt lat="47.17621" lon="4.88763">
        <ele>543</ele>
        <time>2021-02-14T13:50:33.000Z</time>
      </trkpt>
      <trkpt lat="47.17611" lon="4.88763">
        <ele>540</ele>
        <time>2021-02-14T13:50:48.000Z</time>
      </trkpt>
      <trkpt lat="47.17602" lon="4.88757">
        <ele>545</ele>
        <time>2021-02-14T13:51:01.000Z</time>
      </trkpt>
      <trkpt lat="47.17592" lon="4.88752">
        <ele>550</ele>
        <time>2021-02-14T13:51:13.000Z</time>
      </trkpt>
      <trkpt lat="47.17582" lon="4.8875">
        <ele>548</ele>
        <time>2021-02-14T13:51:25.000Z</time>
      </trkpt>
      <trkpt lat="47.17573" lon="4.88745">
        <ele>550</ele>
        <time>2021-02-14T13:51:34.000Z</time>
      </trkpt>
      <trkpt lat="47.17565" lon="4.88735">
        <ele>548</ele>
        <time>2021-02-14T13:51:46.000Z</time>
      </trkpt>
      <trkpt lat="47.17558" lon="4.88726">
        <ele>544</ele>
        <time>2021-02-14T13:51:55.000Z</time>
      </trkpt>
      <trkpt lat="47.17547" lon="4.88719">
        <ele>541</ele>
        <time>2021-02-14T13:52:04.000Z</time>
      </trkpt>
      <trkpt lat="47.17539" lon="4.88712">
        <ele>542</ele>
        <time>2021-02-14T13:52:13.000Z</time>
      </trkpt>
      <trkpt lat="47.17529" lon="4.88706">
        <ele>543</ele>
        <time>2021-02-14T13:52:25.000Z</time>
      </trkpt>
      <trkpt lat="47.1752" lon="4.88697">
        <ele>546</ele>
        <time>2021-02-14T13:52:37.000Z</time>
      </trkpt>
      <trkpt lat="47.17514" lon="4.88685">
        <ele>545</ele>
        <time>2021-02-14T13:52:46.000Z</time>
      </trkpt>
      <trkpt lat="47.17506" lon="4.88679">
        <ele>540</ele>
        <time>2021-02-14T13:53:04.000Z</time>
      </trkpt>
      <trkpt lat="47.17497" lon="4.88674">
        <ele>536</ele>
        <time>2021-02-14T13:53:57.000Z</time>
      </trkpt>
      <trkpt lat="47.17489" lon="4.88666">
        <ele>535</ele>
        <time>2021-02-14T13:54:03.000Z</time>
      </trkpt>
      <trkpt lat="47.17482" lon="4.88655">
        <ele>535</ele>
        <time>2021-02-14T13:54:12.000Z</time>
      </trkpt>
      <trkpt lat="47.17471" lon="4.88652">
        <ele>538</ele>
        <time>2021-02-14T13:54:22.000Z</time>
      </trkpt>
      <trkpt lat="47.17459" lon="4.88651">
        <ele>538</ele>
        <time>2021-02-14T13:54:40.000Z</time>
      </trkpt>
      <trkpt lat="47.1745" lon="4.88644">
        <ele>530</ele>
        <time>2021-02-14T13:55:57.000Z</time>
      </trkpt>
      <trkpt lat="47.17438" lon="4.88648">
        <ele>534</ele>
        <time>2021-02-14T13:56:30.000Z</time>
      </trkpt>
      <trkpt lat="47.1743" lon="4.8864">
        <ele>530</ele>
        <time>2021-02-14T13:56:39.000Z</time>
      </trkpt>
      <trkpt lat="47.17421" lon="4.88635">
        <ele>527</ele>
        <time>2021-02-14T13:56:48.000Z</time>
      </trkpt>
      <trkpt lat="47.17413" lon="4.88641">
        <ele>527</ele>
        <time>2021-02-14T13:57:03.000Z</time>
      </trkpt>
      <trkpt lat="47.17404" lon="4.88644">
        <ele>530</ele>
        <time>2021-02-14T13:57:15.000Z</time>
      </trkpt>
      <trkpt lat="47.17395" lon="4.88648">
        <ele>524</ele>
        <time>2021-02-14T13:57:25.000Z</time>
      </trkpt>
      <trkpt lat="47.17385" lon="4.88646">
        <ele>525</ele>
        <time>2021-02-14T13:57:31.000Z</time>
      </trkpt>
      <trkpt lat="47.17373" lon="4.88644">
        <ele>525</ele>
        <time>2021-02-14T13:57:40.000Z</time>
      </trkpt>
      <trkpt lat="47.17366" lon="4.88635">
        <ele>527</ele>
        <time>2021-02-14T13:57:49.000Z</time>
      </trkpt>
      <trkpt lat="47.17359" lon="4.88625">
        <ele>526</ele>
        <time>2021-02-14T13:58:01.000Z</time>
      </trkpt>
      <trkpt lat="47.17349" lon="4.8862">
        <ele>521</ele>
        <time>2021-02-14T13:58:10.000Z</time>
      </trkpt>
      <trkpt lat="47.1734" lon="4.88618">
        <ele>517</ele>
        <time>2021-02-14T13:58:19.000Z</time>
      </trkpt>
      <trkpt lat="47.17331" lon="4.88621">
        <ele>514</ele>
        <time>2021-02-14T13:58:44.000Z</time>
      </trkpt>
      <trkpt lat="47.17322" lon="4.88617">
        <ele>511</ele>
        <time>2021-02-14T13:59:08.000Z</time>
      </trkpt>
      <trkpt lat="47.17313" lon="4.88619">
        <ele>508</ele>
        <time>2021-02-14T14:00:06.000Z</time>
      </trkpt>
      <trkpt lat="47.17305" lon="4.88611">
        <ele>509</ele>
        <time>2021-02-14T14:00:36.000Z</time>
      </trkpt>
      <trkpt lat="47.17296" lon="4.88612">
        <ele>504</ele>
        <time>2021-02-14T14:01:56.000Z</time>
      </trkpt>
      <trkpt lat="47.17286" lon="4.88608">
        <ele>497</ele>
        <time>2021-02-14T14:02:26.000Z</time>
      </trkpt>
      <trkpt lat="47.17276" lon="4.88607">
        <ele>498</ele>
        <time>2021-02-14T14:03:28.000Z</time>
      </trkpt>
      <trkpt lat="47.17266" lon="4.88602">
        <ele>501</ele>
        <time>2021-02-14T14:03:40.000Z</time>
      </trkpt>
      <trkpt lat="47.17256" lon="4.88599">
        <ele>498</ele>
        <time>2021-02-14T14:03:53.000Z</time>
      </trkpt>
      <trkpt lat="47.17247" lon="4.88596">
        <ele>498</ele>
        <time>2021-02-14T14:04:19.000Z</time>
      </trkpt>
      <trkpt lat="47.17237" lon="4.88591">
        <ele>492</ele>
        <time>2021-02-14T14:04:37.000Z</time>
      </trkpt>
      <trkpt lat="47.17228" lon="4.88581">
        <ele>494</ele>
        <time>2021-02-14T14:04:52.000Z</time>
      </trkpt>
      <trkpt lat="47.1722" lon="4.88575">
        <ele>492</ele>
        <time>2021-02-14T14:05:04.000Z</time>
      </trkpt>
      <trkpt lat="47.17212" lon="4.88567">
        <ele>491</ele>
        <time>2021-02-14T14:05:19.000Z</time>
      </trkpt>
      <trkpt lat="47.17205" lon="4.88558">
        <ele>487</ele>
        <time>2021-02-14T14:05:38.000Z</time>
      </trkpt>
      <trkpt lat="47.17193" lon="4.88553">
        <ele>480</ele>
        <time>2021-02-14T14:05:54.000Z</time>
      </trkpt>
      <trkpt lat="47.17185" lon="4.88561">
        <ele>478</ele>
        <time>2021-02-14T14:06:06.000Z</time>
      </trkpt>
      <trkpt lat="47.17175" lon="4.88565">
        <ele>479</ele>
        <time>2021-02-14T14:06:30.000Z</time>
      </trkpt>
      <trkpt lat="47.17164" lon="4.88563">
        <ele>480</ele>
        <time>2021-02-14T14:06:40.000Z</time>
      </trkpt>
      <trkpt lat="47.17155" lon="4.88568">
        <ele>480</ele>
        <time>2021-02-14T14:06:49.000Z</time>
      </trkpt>
      <trkpt lat="47.17144" lon="4.88573">
        <ele>481</ele>
        <time>2021-02-14T14:06:58.000Z</time>
      </trkpt>
      <trkpt lat="47.17134" lon="4.88572">
        <ele>480</ele>
        <time>2021-02-14T14:07:07.000Z</time>
      </trkpt>
      <trkpt lat="47.17124" lon="4.88568">
        <ele>479</ele>
        <time>2021-02-14T14:07:16.000Z</time>
      </trkpt>
      <trkpt lat="47.17113" lon="4.88574">
        <ele>478</ele>
        <time>2021-02-14T14:07:28.000Z</time>
      </trkpt>
      <trkpt lat="47.17108" lon="4.88588">
        <ele>478</ele>
        <time>2021-02-14T14:08:14.000Z</time>
      </trkpt>
      <trkpt lat="47.17113" lon="4.88605">
        <ele>473</ele>
        <time>2021-02-14T14:08:26.000Z</time>
      </trkpt>
      <trkpt lat="47.17119" lon="4.88616">
        <ele>470</ele>
        <time>2021-02-14T14:08:34.000Z</time>
      </trkpt>
      <trkpt lat="47.17123" lon="4.88629">
        <ele>467</ele>
        <time>2021-02-14T14:08:43.000Z</time>
      </trkpt>
      <trkpt lat="47.17128" lon="4.88646">
        <ele>469</ele>
        <time>2021-02-14T14:08:53.000Z</time>
      </trkpt>
      <trkpt lat="47.17135" lon="4.88661">
        <ele>467</ele>
        <time>2021-02-14T14:09:02.000Z</time>
      </trkpt>
      <trkpt lat="47.17142" lon="4.88672">
        <ele>467</ele>
        <time>2021-02-14T14:09:11.000Z</time>
      </trkpt>
      <trkpt lat="47.1715" lon="4.88682">
        <ele>467</ele>
        <time>2021-02-14T14:09:18.000Z</time>
      </trkpt>
      <trkpt lat="47.17157" lon="4.88693">
        <ele>464</ele>
        <time>2021-02-14T14:09:25.000Z</time>
      </trkpt>
      <trkpt lat="47.17164" lon="4.88704">
        <ele>468</ele>
        <time>2021-02-14T14:09:34.000Z</time>
      </trkpt>
      <trkpt lat="47.1717" lon="4.88719">
        <ele>473</ele>
        <time>2021-02-14T14:09:43.000Z</time>
      </trkpt>
      <trkpt lat="47.17177" lon="4.88733">
        <ele>475</ele>
        <time>2021-02-14T14:09:52.000Z</time>
      </trkpt>
      <trkpt lat="47.17184" lon="4.88741">
        <ele>475</ele>
        <time>2021-02-14T14:09:58.000Z</time>
      </trkpt>
      <trkpt lat="47.17194" lon="4.88753">
        <ele>475</ele>
        <time>2021-02-14T14:10:10.000Z</time>
      </trkpt>
      <trkpt lat="47.17202" lon="4.88763">
        <ele>475</ele>
        <time>2021-02-14T14:10:19.000Z</time>
      </trkpt>
      <trkpt lat="47.1721" lon="4.88775">
        <ele>477</ele>
        <time>2021-02-14T14:10:28.000Z</time>
      </trkpt>
      <trkpt lat="47.17218" lon="4.88785">
        <ele>475</ele>
        <time>2021-02-14T14:10:37.000Z</time>
      </trkpt>
      <trkpt lat="47.17229" lon="4.88795">
        <ele>471</ele>
        <time>2021-02-14T14:10:46.000Z</time>
      </trkpt>
      <trkpt lat="47.17236" lon="4.88805">
        <ele>468</ele>
        <time>2021-02-14T14:10:52.000Z</time>
      </trkpt>
      <trkpt lat="47.17245" lon="4.88814">
        <ele>471</ele>
        <time>2021-02-14T14:11:04.000Z</time>
      </trkpt>
      <trkpt lat="47.17253" lon="4.88824">
        <ele>469</ele>
        <time>2021-02-14T14:11:13.000Z</time>
      </trkpt>
      <trkpt lat="47.1726" lon="4.88837">
        <ele>469</ele>
        <time>2021-02-14T14:11:22.000Z</time>
      </trkpt>
      <trkpt lat="47.17267" lon="4.88846">
        <ele>466</ele>
        <time>2021-02-14T14:11:31.000Z</time>
      </trkpt>
      <trkpt lat="47.17274" lon="4.88854">
        <ele>464</ele>
        <time>2021-02-14T14:11:40.000Z</time>
      </trkpt>
      <trkpt lat="47.17281" lon="4.88864">
        <ele>462</ele>
        <time>2021-02-14T14:11:49.000Z</time>
      </trkpt>
      <trkpt lat="47.17288" lon="4.88874">
        <ele>460</ele>
        <time>2021-02-14T14:11:58.000Z</time>
      </trkpt>
      <trkpt lat="47.17297" lon="4.88882">
        <ele>460</ele>
        <time>2021-02-14T14:12:07.000Z</time>
      </trkpt>
      <trkpt lat="47.17304" lon="4.88895">
        <ele>455</ele>
        <time>2021-02-14T14:12:19.000Z</time>
      </trkpt>
      <trkpt lat="47.17295" lon="4.88902">
        <ele>451</ele>
        <time>2021-02-14T14:14:12.000Z</time>
      </trkpt>
      <trkpt lat="47.17283" lon="4.88904">
        <ele>452</ele>
        <time>2021-02-14T14:14:20.000Z</time>
      </trkpt>
      <trkpt lat="47.17272" lon="4.88905">
        <ele>453</ele>
        <time>2021-02-14T14:14:28.000Z</time>
      </trkpt>
      <trkpt lat="47.17258" lon="4.88908">
        <ele>453</ele>
        <time>2021-02-14T14:14:37.000Z</time>
      </trkpt>
      <trkpt lat="47.17246" lon="4.88906">
        <ele>465</ele>
        <time>2021-02-14T14:14:46.000Z</time>
      </trkpt>
      <trkpt lat="47.17237" lon="4.88901">
        <ele>453</ele>
        <time>2021-02-14T14:14:52.000Z</time>
      </trkpt>
      <trkpt lat="47.17226" lon="4.88896">
        <ele>453</ele>
        <time>2021-02-14T14:15:01.000Z</time>
      </trkpt>
      <trkpt lat="47.17218" lon="4.8889">
        <ele>455</ele>
        <time>2021-02-14T14:15:10.000Z</time>
      </trkpt>
      <trkpt lat="47.17206" lon="4.88884">
        <ele>455</ele>
        <time>2021-02-14T14:15:19.000Z</time>
      </trkpt>
      <trkpt lat="47.17193" lon="4.88878">
        <ele>451</ele>
        <time>2021-02-14T14:15:28.000Z</time>
      </trkpt>
      <trkpt lat="47.17185" lon="4.88871">
        <ele>449</ele>
        <time>2021-02-14T14:15:34.000Z</time>
      </trkpt>
      <trkpt lat="47.17174" lon="4.88861">
        <ele>448</ele>
        <time>2021-02-14T14:15:43.000Z</time>
      </trkpt>
      <trkpt lat="47.17163" lon="4.88856">
        <ele>446</ele>
        <time>2021-02-14T14:15:52.000Z</time>
      </trkpt>
      <trkpt lat="47.17155" lon="4.88849">
        <ele>444</ele>
        <time>2021-02-14T14:15:58.000Z</time>
      </trkpt>
      <trkpt lat="47.17143" lon="4.88841">
        <ele>444</ele>
        <time>2021-02-14T14:16:07.000Z</time>
      </trkpt>
      <trkpt lat="47.17132" lon="4.88832">
        <ele>443</ele>
        <time>2021-02-14T14:16:16.000Z</time>
      </trkpt>
      <trkpt lat="47.17125" lon="4.88825">
        <ele>442</ele>
        <time>2021-02-14T14:16:23.000Z</time>
      </trkpt>
      <trkpt lat="47.17116" lon="4.88815">
        <ele>440</ele>
        <time>2021-02-14T14:16:32.000Z</time>
      </trkpt>
      <trkpt lat="47.17107" lon="4.88806">
        <ele>438</ele>
        <time>2021-02-14T14:16:40.000Z</time>
      </trkpt>
      <trkpt lat="47.17097" lon="4.88795">
        <ele>441</ele>
        <time>2021-02-14T14:16:48.000Z</time>
      </trkpt>
      <trkpt lat="47.17091" lon="4.88786">
        <ele>451</ele>
        <time>2021-02-14T14:16:54.000Z</time>
      </trkpt>
      <trkpt lat="47.17083" lon="4.88779">
        <ele>444</ele>
        <time>2021-02-14T14:17:00.000Z</time>
      </trkpt>
      <trkpt lat="47.1707" lon="4.88773">
        <ele>436</ele>
        <time>2021-02-14T14:17:09.000Z</time>
      </trkpt>
      <trkpt lat="47.17061" lon="4.88763">
        <ele>428</ele>
        <time>2021-02-14T14:17:15.000Z</time>
      </trkpt>
      <trkpt lat="47.1705" lon="4.88752">
        <ele>427</ele>
        <time>2021-02-14T14:17:24.000Z</time>
      </trkpt>
      <trkpt lat="47.17043" lon="4.88743">
        <ele>424</ele>
        <time>2021-02-14T14:17:30.000Z</time>
      </trkpt>
      <trkpt lat="47.17035" lon="4.88735">
        <ele>423</ele>
        <time>2021-02-14T14:17:36.000Z</time>
      </trkpt>
      <trkpt lat="47.17024" lon="4.88724">
        <ele>422</ele>
        <time>2021-02-14T14:17:45.000Z</time>
      </trkpt>
      <trkpt lat="47.17015" lon="4.88719">
        <ele>421</ele>
        <time>2021-02-14T14:17:51.000Z</time>
      </trkpt>
      <trkpt lat="47.17006" lon="4.88719">
        <ele>423</ele>
        <time>2021-02-14T14:18:00.000Z</time>
      </trkpt>
      <trkpt lat="47.16996" lon="4.8872">
        <ele>423</ele>
        <time>2021-02-14T14:18:06.000Z</time>
      </trkpt>
      <trkpt lat="47.16984" lon="4.88721">
        <ele>421</ele>
        <time>2021-02-14T14:18:15.000Z</time>
      </trkpt>
      <trkpt lat="47.16974" lon="4.88721">
        <ele>420</ele>
        <time>2021-02-14T14:18:21.000Z</time>
      </trkpt>
      <trkpt lat="47.16965" lon="4.8872">
        <ele>421</ele>
        <time>2021-02-14T14:18:27.000Z</time>
      </trkpt>
      <trkpt lat="47.16952" lon="4.88717">
        <ele>421</ele>
        <time>2021-02-14T14:18:35.000Z</time>
      </trkpt>
      <trkpt lat="47.1694" lon="4.88714">
        <ele>417</ele>
        <time>2021-02-14T14:18:44.000Z</time>
      </trkpt>
      <trkpt lat="47.16932" lon="4.88708">
        <ele>415</ele>
        <time>2021-02-14T14:18:50.000Z</time>
      </trkpt>
      <trkpt lat="47.16922" lon="4.88703">
        <ele>412</ele>
        <time>2021-02-14T14:18:59.000Z</time>
      </trkpt>
      <trkpt lat="47.16911" lon="4.88698">
        <ele>407</ele>
        <time>2021-02-14T14:19:11.000Z</time>
      </trkpt>
      <trkpt lat="47.16901" lon="4.88696">
        <ele>405</ele>
        <time>2021-02-14T14:19:17.000Z</time>
      </trkpt>
      <trkpt lat="47.16891" lon="4.88695">
        <ele>401</ele>
        <time>2021-02-14T14:19:26.000Z</time>
      </trkpt>
      <trkpt lat="47.16882" lon="4.88693">
        <ele>405</ele>
        <time>2021-02-14T14:19:35.000Z</time>
      </trkpt>
      <trkpt lat="47.16872" lon="4.88684">
        <ele>404</ele>
        <time>2021-02-14T14:19:41.000Z</time>
      </trkpt>
      <trkpt lat="47.16863" lon="4.88669">
        <ele>397</ele>
        <time>2021-02-14T14:19:50.000Z</time>
      </trkpt>
      <trkpt lat="47.16859" lon="4.88651">
        <ele>396</ele>
        <time>2021-02-14T14:19:59.000Z</time>
      </trkpt>
      <trkpt lat="47.16854" lon="4.88636">
        <ele>399</ele>
        <time>2021-02-14T14:20:07.000Z</time>
      </trkpt>
      <trkpt lat="47.1685" lon="4.88622">
        <ele>401</ele>
        <time>2021-02-14T14:20:15.000Z</time>
      </trkpt>
      <trkpt lat="47.16846" lon="4.88607">
        <ele>397</ele>
        <time>2021-02-14T14:20:23.000Z</time>
      </trkpt>
      <trkpt lat="47.16843" lon="4.88594">
        <ele>396</ele>
        <time>2021-02-14T14:20:29.000Z</time>
      </trkpt>
      <trkpt lat="47.1684" lon="4.88579">
        <ele>400</ele>
        <time>2021-02-14T14:20:36.000Z</time>
      </trkpt>
      <trkpt lat="47.16838" lon="4.88565">
        <ele>394</ele>
        <time>2021-02-14T14:20:43.000Z</time>
      </trkpt>
      <trkpt lat="47.16836" lon="4.88551">
        <ele>392</ele>
        <time>2021-02-14T14:20:50.000Z</time>
      </trkpt>
      <trkpt lat="47.16832" lon="4.88539">
        <ele>389</ele>
        <time>2021-02-14T14:20:56.000Z</time>
      </trkpt>
      <trkpt lat="47.16828" lon="4.88527">
        <ele>386</ele>
        <time>2021-02-14T14:21:02.000Z</time>
      </trkpt>
      <trkpt lat="47.16824" lon="4.88513">
        <ele>385</ele>
        <time>2021-02-14T14:21:09.000Z</time>
      </trkpt>
      <trkpt lat="47.16819" lon="4.88501">
        <ele>387</ele>
        <time>2021-02-14T14:21:15.000Z</time>
      </trkpt>
      <trkpt lat="47.16816" lon="4.88488">
        <ele>386</ele>
        <time>2021-02-14T14:21:20.000Z</time>
      </trkpt>
      <trkpt lat="47.16814" lon="4.88475">
        <ele>386</ele>
        <time>2021-02-14T14:21:26.000Z</time>
      </trkpt>
      <trkpt lat="47.16809" lon="4.88459">
        <ele>387</ele>
        <time>2021-02-14T14:21:34.000Z</time>
      </trkpt>
      <trkpt lat="47.16804" lon="4.88447">
        <ele>387</ele>
        <time>2021-02-14T14:21:40.000Z</time>
      </trkpt>
      <trkpt lat="47.16798" lon="4.88431">
        <ele>387</ele>
        <time>2021-02-14T14:21:49.000Z</time>
      </trkpt>
      <trkpt lat="47.16792" lon="4.88415">
        <ele>386</ele>
        <time>2021-02-14T14:21:58.000Z</time>
      </trkpt>
      <trkpt lat="47.16787" lon="4.88398">
        <ele>384</ele>
        <time>2021-02-14T14:22:07.000Z</time>
      </trkpt>
      <trkpt lat="47.16783" lon="4.88386">
        <ele>383</ele>
        <time>2021-02-14T14:22:13.000Z</time>
      </trkpt>
      <trkpt lat="47.16778" lon="4.88368">
        <ele>379</ele>
        <time>2021-02-14T14:22:22.000Z</time>
      </trkpt>
      <trkpt lat="47.16776" lon="4.88354">
        <ele>376</ele>
        <time>2021-02-14T14:22:29.000Z</time>
      </trkpt>
      <trkpt lat="47.16773" lon="4.88341">
        <ele>371</ele>
        <time>2021-02-14T14:22:35.000Z</time>
      </trkpt>
      <trkpt lat="47.16769" lon="4.88328">
        <ele>368</ele>
        <time>2021-02-14T14:22:41.000Z</time>
      </trkpt>
      <trkpt lat="47.16765" lon="4.88309">
        <ele>371</ele>
        <time>2021-02-14T14:22:50.000Z</time>
      </trkpt>
      <trkpt lat="47.16763" lon="4.88291">
        <ele>375</ele>
        <time>2021-02-14T14:22:59.000Z</time>
      </trkpt>
      <trkpt lat="47.1676" lon="4.88273">
        <ele>372</ele>
        <time>2021-02-14T14:23:08.000Z</time>
      </trkpt>
      <trkpt lat="47.16759" lon="4.88257">
        <ele>374</ele>
        <time>2021-02-14T14:23:17.000Z</time>
      </trkpt>
      <trkpt lat="47.16756" lon="4.88242">
        <ele>373</ele>
        <time>2021-02-14T14:23:26.000Z</time>
      </trkpt>
      <trkpt lat="47.16756" lon="4.88226">
        <ele>385</ele>
        <time>2021-02-14T14:23:34.000Z</time>
      </trkpt>
      <trkpt lat="47.16754" lon="4.8821">
        <ele>376</ele>
        <time>2021-02-14T14:23:42.000Z</time>
      </trkpt>
      <trkpt lat="47.16753" lon="4.88192">
        <ele>374</ele>
        <time>2021-02-14T14:23:51.000Z</time>
      </trkpt>
      <trkpt lat="47.16753" lon="4.88176">
        <ele>371</ele>
        <time>2021-02-14T14:24:03.000Z</time>
      </trkpt>
      <trkpt lat="47.16751" lon="4.88163">
        <ele>370</ele>
        <time>2021-02-14T14:24:12.000Z</time>
      </trkpt>
      <trkpt lat="47.16747" lon="4.88146">
        <ele>367</ele>
        <time>2021-02-14T14:24:20.000Z</time>
      </trkpt>
      <trkpt lat="47.16745" lon="4.8813">
        <ele>363</ele>
        <time>2021-02-14T14:24:29.000Z</time>
      </trkpt>
      <trkpt lat="47.16743" lon="4.88112">
        <ele>362</ele>
        <time>2021-02-14T14:24:54.000Z</time>
      </trkpt>
      <trkpt lat="47.16739" lon="4.88094">
        <ele>358</ele>
        <time>2021-02-14T14:25:03.000Z</time>
      </trkpt>
      <trkpt lat="47.16737" lon="4.88076">
        <ele>355</ele>
        <time>2021-02-14T14:25:12.000Z</time>
      </trkpt>
      <trkpt lat="47.16734" lon="4.8806">
        <ele>356</ele>
        <time>2021-02-14T14:25:21.000Z</time>
      </trkpt>
      <trkpt lat="47.16729" lon="4.88045">
        <ele>357</ele>
        <time>2021-02-14T14:25:30.000Z</time>
      </trkpt>
      <trkpt lat="47.16724" lon="4.8803">
        <ele>356</ele>
        <time>2021-02-14T14:25:39.000Z</time>
      </trkpt>
      <trkpt lat="47.16719" lon="4.88014">
        <ele>353</ele>
        <time>2021-02-14T14:25:47.000Z</time>
      </trkpt>
      <trkpt lat="47.16713" lon="4.88001">
        <ele>350</ele>
        <time>2021-02-14T14:25:55.000Z</time>
      </trkpt>
      <trkpt lat="47.16706" lon="4.87988">
        <ele>348</ele>
        <time>2021-02-14T14:26:03.000Z</time>
      </trkpt>
      <trkpt lat="47.16699" lon="4.87976">
        <ele>349</ele>
        <time>2021-02-14T14:26:11.000Z</time>
      </trkpt>
      <trkpt lat="47.16691" lon="4.87961">
        <ele>346</ele>
        <time>2021-02-14T14:26:20.000Z</time>
      </trkpt>
      <trkpt lat="47.16685" lon="4.8795">
        <ele>346</ele>
        <time>2021-02-14T14:26:28.000Z</time>
      </trkpt>
      <trkpt lat="47.16678" lon="4.8794">
        <ele>350</ele>
        <time>2021-02-14T14:26:36.000Z</time>
      </trkpt>
      <trkpt lat="47.1667" lon="4.8793">
        <ele>351</ele>
        <time>2021-02-14T14:26:44.000Z</time>
      </trkpt>
      <trkpt lat="47.16661" lon="4.87917">
        <ele>352</ele>
        <time>2021-02-14T14:26:52.000Z</time>
      </trkpt>
      <trkpt lat="47.16653" lon="4.87904">
        <ele>352</ele>
        <time>2021-02-14T14:27:01.000Z</time>
      </trkpt>
      <trkpt lat="47.16647" lon="4.87889">
        <ele>351</ele>
        <time>2021-02-14T14:27:13.000Z</time>
      </trkpt>
      <trkpt lat="47.16643" lon="4.87872">
        <ele>351</ele>
        <time>2021-02-14T14:27:22.000Z</time>
      </trkpt>
      <trkpt lat="47.1664" lon="4.87854">
        <ele>348</ele>
        <time>2021-02-14T14:27:31.000Z</time>
      </trkpt>
      <trkpt lat="47.16641" lon="4.87838">
        <ele>347</ele>
        <time>2021-02-14T14:27:40.000Z</time>
      </trkpt>
      <trkpt lat="47.16644" lon="4.87823">
        <ele>347</ele>
        <time>2021-02-14T14:27:48.000Z</time>
      </trkpt>
      <trkpt lat="47.16647" lon="4.8781">
        <ele>346</ele>
        <time>2021-02-14T14:27:54.000Z</time>
      </trkpt>
      <trkpt lat="47.16648" lon="4.87792">
        <ele>345</ele>
        <time>2021-02-14T14:28:03.000Z</time>
      </trkpt>
      <trkpt lat="47.16648" lon="4.87775">
        <ele>345</ele>
        <time>2021-02-14T14:28:12.000Z</time>
      </trkpt>
      <trkpt lat="47.16646" lon="4.87759">
        <ele>345</ele>
        <time>2021-02-14T14:28:21.000Z</time>
      </trkpt>
      <trkpt lat="47.16643" lon="4.87743">
        <ele>347</ele>
        <time>2021-02-14T14:28:30.000Z</time>
      </trkpt>
      <trkpt lat="47.16639" lon="4.87727">
        <ele>344</ele>
        <time>2021-02-14T14:28:41.000Z</time>
      </trkpt>
      <trkpt lat="47.16634" lon="4.87712">
        <ele>341</ele>
        <time>2021-02-14T14:28:50.000Z</time>
      </trkpt>
      <trkpt lat="47.16628" lon="4.877">
        <ele>342</ele>
        <time>2021-02-14T14:28:59.000Z</time>
      </trkpt>
      <trkpt lat="47.16616" lon="4.87692">
        <ele>347</ele>
        <time>2021-02-14T14:29:11.000Z</time>
      </trkpt>
      <trkpt lat="47.16605" lon="4.87688">
        <ele>346</ele>
        <time>2021-02-14T14:29:23.000Z</time>
      </trkpt>
      <trkpt lat="47.16593" lon="4.87689">
        <ele>345</ele>
        <time>2021-02-14T14:29:32.000Z</time>
      </trkpt>
      <trkpt lat="47.16582" lon="4.87686">
        <ele>346</ele>
        <time>2021-02-14T14:29:41.000Z</time>
      </trkpt>
      <trkpt lat="47.16572" lon="4.87679">
        <ele>343</ele>
        <time>2021-02-14T14:29:50.000Z</time>
      </trkpt>
      <trkpt lat="47.16569" lon="4.87665">
        <ele>344</ele>
        <time>2021-02-14T14:30:03.000Z</time>
      </trkpt>
      <trkpt lat="47.16577" lon="4.87655">
        <ele>343</ele>
        <time>2021-02-14T14:30:12.000Z</time>
      </trkpt>
      <trkpt lat="47.16581" lon="4.87642">
        <ele>345</ele>
        <time>2021-02-14T14:30:21.000Z</time>
      </trkpt>
      <trkpt lat="47.16586" lon="4.87628">
        <ele>348</ele>
        <time>2021-02-14T14:30:32.000Z</time>
      </trkpt>
      <trkpt lat="47.1659" lon="4.87614">
        <ele>350</ele>
        <time>2021-02-14T14:30:41.000Z</time>
      </trkpt>
      <trkpt lat="47.16596" lon="4.87599">
        <ele>349</ele>
        <time>2021-02-14T14:30:52.000Z</time>
      </trkpt>
      <trkpt lat="47.166" lon="4.87584">
        <ele>352</ele>
        <time>2021-02-14T14:31:01.000Z</time>
      </trkpt>
      <trkpt lat="47.16604" lon="4.87569">
        <ele>350</ele>
        <time>2021-02-14T14:31:10.000Z</time>
      </trkpt>
      <trkpt lat="47.16606" lon="4.87556">
        <ele>352</ele>
        <time>2021-02-14T14:31:19.000Z</time>
      </trkpt>
      <trkpt lat="47.16609" lon="4.87543">
        <ele>352</ele>
        <time>2021-02-14T14:31:28.000Z</time>
      </trkpt>
      <trkpt lat="47.16613" lon="4.87529">
        <ele>360</ele>
        <time>2021-02-14T14:31:40.000Z</time>
      </trkpt>
      <trkpt lat="47.16616" lon="4.87515">
        <ele>364</ele>
        <time>2021-02-14T14:31:52.000Z</time>
      </trkpt>
      <trkpt lat="47.16623" lon="4.87499">
        <ele>365</ele>
        <time>2021-02-14T14:32:04.000Z</time>
      </trkpt>
      <trkpt lat="47.16629" lon="4.87482">
        <ele>365</ele>
        <time>2021-02-14T14:32:13.000Z</time>
      </trkpt>
      <trkpt lat="47.16633" lon="4.87465">
        <ele>369</ele>
        <time>2021-02-14T14:32:25.000Z</time>
      </trkpt>
      <trkpt lat="47.16635" lon="4.8745">
        <ele>366</ele>
        <time>2021-02-14T14:32:34.000Z</time>
      </trkpt>
      <trkpt lat="47.16638" lon="4.87437">
        <ele>367</ele>
        <time>2021-02-14T14:32:43.000Z</time>
      </trkpt>
      <trkpt lat="47.16641" lon="4.87423">
        <ele>367</ele>
        <time>2021-02-14T14:32:52.000Z</time>
      </trkpt>
      <trkpt lat="47.16646" lon="4.87409">
        <ele>365</ele>
        <time>2021-02-14T14:33:10.000Z</time>
      </trkpt>
      <trkpt lat="47.16651" lon="4.87395">
        <ele>363</ele>
        <time>2021-02-14T14:33:19.000Z</time>
      </trkpt>
      <trkpt lat="47.16655" lon="4.87381">
        <ele>363</ele>
        <time>2021-02-14T14:33:28.000Z</time>
      </trkpt>
      <trkpt lat="47.16661" lon="4.87369">
        <ele>362</ele>
        <time>2021-02-14T14:33:37.000Z</time>
      </trkpt>
      <trkpt lat="47.16665" lon="4.87354">
        <ele>361</ele>
        <time>2021-02-14T14:34:04.000Z</time>
      </trkpt>
      <trkpt lat="47.16669" lon="4.8734">
        <ele>364</ele>
        <time>2021-02-14T14:34:25.000Z</time>
      </trkpt>
      <trkpt lat="47.16673" lon="4.87328">
        <ele>364</ele>
        <time>2021-02-14T14:34:35.000Z</time>
      </trkpt>
      <trkpt lat="47.1668" lon="4.87313">
        <ele>364</ele>
        <time>2021-02-14T14:34:47.000Z</time>
      </trkpt>
      <trkpt lat="47.16686" lon="4.87301">
        <ele>364</ele>
        <time>2021-02-14T14:34:56.000Z</time>
      </trkpt>
      <trkpt lat="47.16692" lon="4.87291">
        <ele>368</ele>
        <time>2021-02-14T14:35:05.000Z</time>
      </trkpt>
      <trkpt lat="47.167" lon="4.87281">
        <ele>369</ele>
        <time>2021-02-14T14:35:14.000Z</time>
      </trkpt>
      <trkpt lat="47.16707" lon="4.87271">
        <ele>368</ele>
        <time>2021-02-14T14:35:23.000Z</time>
      </trkpt>
      <trkpt lat="47.16718" lon="4.87259">
        <ele>369</ele>
        <time>2021-02-14T14:35:35.000Z</time>
      </trkpt>
      <trkpt lat="47.16727" lon="4.87249">
        <ele>369</ele>
        <time>2021-02-14T14:35:44.000Z</time>
      </trkpt>
      <trkpt lat="47.16735" lon="4.87238">
        <ele>366</ele>
        <time>2021-02-14T14:35:53.000Z</time>
      </trkpt>
      <trkpt lat="47.16742" lon="4.87229">
        <ele>370</ele>
        <time>2021-02-14T14:36:01.000Z</time>
      </trkpt>
      <trkpt lat="47.16751" lon="4.87223">
        <ele>372</ele>
        <time>2021-02-14T14:36:10.000Z</time>
      </trkpt>
      <trkpt lat="47.16759" lon="4.87217">
        <ele>374</ele>
        <time>2021-02-14T14:36:19.000Z</time>
      </trkpt>
      <trkpt lat="47.1677" lon="4.8721">
        <ele>375</ele>
        <time>2021-02-14T14:36:29.000Z</time>
      </trkpt>
      <trkpt lat="47.1678" lon="4.87209">
        <ele>373</ele>
        <time>2021-02-14T14:36:37.000Z</time>
      </trkpt>
      <trkpt lat="47.1679" lon="4.87205">
        <ele>374</ele>
        <time>2021-02-14T14:36:47.000Z</time>
      </trkpt>
      <trkpt lat="47.168" lon="4.87204">
        <ele>377</ele>
        <time>2021-02-14T14:36:56.000Z</time>
      </trkpt>
      <trkpt lat="47.1681" lon="4.87198">
        <ele>382</ele>
        <time>2021-02-14T14:37:20.000Z</time>
      </trkpt>
      <trkpt lat="47.16819" lon="4.87193">
        <ele>382</ele>
        <time>2021-02-14T14:37:29.000Z</time>
      </trkpt>
      <trkpt lat="47.16828" lon="4.87187">
        <ele>385</ele>
        <time>2021-02-14T14:37:38.000Z</time>
      </trkpt>
      <trkpt lat="47.16836" lon="4.87182">
        <ele>385</ele>
        <time>2021-02-14T14:37:47.000Z</time>
      </trkpt>
      <trkpt lat="47.16848" lon="4.87181">
        <ele>385</ele>
        <time>2021-02-14T14:37:57.000Z</time>
      </trkpt>
      <trkpt lat="47.16857" lon="4.87176">
        <ele>386</ele>
        <time>2021-02-14T14:38:06.000Z</time>
      </trkpt>
      <trkpt lat="47.16866" lon="4.87168">
        <ele>385</ele>
        <time>2021-02-14T14:38:21.000Z</time>
      </trkpt>
      <trkpt lat="47.16872" lon="4.87156">
        <ele>388</ele>
        <time>2021-02-14T14:38:32.000Z</time>
      </trkpt>
      <trkpt lat="47.16873" lon="4.8714">
        <ele>388</ele>
        <time>2021-02-14T14:38:44.000Z</time>
      </trkpt>
      <trkpt lat="47.16872" lon="4.87126">
        <ele>390</ele>
        <time>2021-02-14T14:38:53.000Z</time>
      </trkpt>
      <trkpt lat="47.16867" lon="4.87114">
        <ele>390</ele>
        <time>2021-02-14T14:39:02.000Z</time>
      </trkpt>
      <trkpt lat="47.16861" lon="4.87103">
        <ele>389</ele>
        <time>2021-02-14T14:39:11.000Z</time>
      </trkpt>
      <trkpt lat="47.16856" lon="4.8709">
        <ele>390</ele>
        <time>2021-02-14T14:39:20.000Z</time>
      </trkpt>
      <trkpt lat="47.16851" lon="4.87076">
        <ele>389</ele>
        <time>2021-02-14T14:39:29.000Z</time>
      </trkpt>
      <trkpt lat="47.16847" lon="4.87064">
        <ele>393</ele>
        <time>2021-02-14T14:39:38.000Z</time>
      </trkpt>
      <trkpt lat="47.16844" lon="4.8705">
        <ele>392</ele>
        <time>2021-02-14T14:39:48.000Z</time>
      </trkpt>
      <trkpt lat="47.16846" lon="4.87035">
        <ele>392</ele>
        <time>2021-02-14T14:39:57.000Z</time>
      </trkpt>
      <trkpt lat="47.1685" lon="4.8702">
        <ele>395</ele>
        <time>2021-02-14T14:40:07.000Z</time>
      </trkpt>
      <trkpt lat="47.16854" lon="4.87008">
        <ele>395</ele>
        <time>2021-02-14T14:40:16.000Z</time>
      </trkpt>
      <trkpt lat="47.16859" lon="4.86993">
        <ele>398</ele>
        <time>2021-02-14T14:40:26.000Z</time>
      </trkpt>
      <trkpt lat="47.16865" lon="4.86981">
        <ele>399</ele>
        <time>2021-02-14T14:40:35.000Z</time>
      </trkpt>
      <trkpt lat="47.1687" lon="4.86969">
        <ele>401</ele>
        <time>2021-02-14T14:40:43.000Z</time>
      </trkpt>
      <trkpt lat="47.16874" lon="4.86953">
        <ele>400</ele>
        <time>2021-02-14T14:40:54.000Z</time>
      </trkpt>
      <trkpt lat="47.16878" lon="4.86938">
        <ele>400</ele>
        <time>2021-02-14T14:41:06.000Z</time>
      </trkpt>
      <trkpt lat="47.16883" lon="4.86924">
        <ele>402</ele>
        <time>2021-02-14T14:41:18.000Z</time>
      </trkpt>
      <trkpt lat="47.16889" lon="4.86909">
        <ele>401</ele>
        <time>2021-02-14T14:41:30.000Z</time>
      </trkpt>
      <trkpt lat="47.16894" lon="4.86896">
        <ele>402</ele>
        <time>2021-02-14T14:41:39.000Z</time>
      </trkpt>
      <trkpt lat="47.16899" lon="4.86882">
        <ele>404</ele>
        <time>2021-02-14T14:41:48.000Z</time>
      </trkpt>
      <trkpt lat="47.16903" lon="4.86869">
        <ele>405</ele>
        <time>2021-02-14T14:41:57.000Z</time>
      </trkpt>
      <trkpt lat="47.16907" lon="4.86854">
        <ele>407</ele>
        <time>2021-02-14T14:42:09.000Z</time>
      </trkpt>
      <trkpt lat="47.16911" lon="4.86841">
        <ele>407</ele>
        <time>2021-02-14T14:42:18.000Z</time>
      </trkpt>
      <trkpt lat="47.16915" lon="4.86829">
        <ele>410</ele>
        <time>2021-02-14T14:42:27.000Z</time>
      </trkpt>
      <trkpt lat="47.16919" lon="4.86814">
        <ele>418</ele>
        <time>2021-02-14T14:42:39.000Z</time>
      </trkpt>
      <trkpt lat="47.16925" lon="4.86802">
        <ele>421</ele>
        <time>2021-02-14T14:42:48.000Z</time>
      </trkpt>
      <trkpt lat="47.16931" lon="4.86788">
        <ele>420</ele>
        <time>2021-02-14T14:42:57.000Z</time>
      </trkpt>
      <trkpt lat="47.16935" lon="4.86777">
        <ele>421</ele>
        <time>2021-02-14T14:43:06.000Z</time>
      </trkpt>
      <trkpt lat="47.1694" lon="4.86765">
        <ele>415</ele>
        <time>2021-02-14T14:44:15.000Z</time>
      </trkpt>
      <trkpt lat="47.16942" lon="4.8675">
        <ele>426</ele>
        <time>2021-02-14T14:44:30.000Z</time>
      </trkpt>
      <trkpt lat="47.16945" lon="4.86736">
        <ele>425</ele>
        <time>2021-02-14T14:44:40.000Z</time>
      </trkpt>
      <trkpt lat="47.16948" lon="4.86723">
        <ele>422</ele>
        <time>2021-02-14T14:44:47.000Z</time>
      </trkpt>
      <trkpt lat="47.16953" lon="4.86709">
        <ele>423</ele>
        <time>2021-02-14T14:44:58.000Z</time>
      </trkpt>
      <trkpt lat="47.1696" lon="4.867">
        <ele>424</ele>
        <time>2021-02-14T14:45:07.000Z</time>
      </trkpt>
      <trkpt lat="47.16967" lon="4.86689">
        <ele>424</ele>
        <time>2021-02-14T14:45:16.000Z</time>
      </trkpt>
      <trkpt lat="47.16975" lon="4.8668">
        <ele>423</ele>
        <time>2021-02-14T14:45:28.000Z</time>
      </trkpt>
      <trkpt lat="47.16982" lon="4.86671">
        <ele>427</ele>
        <time>2021-02-14T14:45:46.000Z</time>
      </trkpt>
      <trkpt lat="47.16992" lon="4.86667">
        <ele>424</ele>
        <time>2021-02-14T14:45:58.000Z</time>
      </trkpt>
      <trkpt lat="47.17001" lon="4.86663">
        <ele>423</ele>
        <time>2021-02-14T14:46:07.000Z</time>
      </trkpt>
      <trkpt lat="47.17012" lon="4.86658">
        <ele>423</ele>
        <time>2021-02-14T14:46:19.000Z</time>
      </trkpt>
      <trkpt lat="47.17021" lon="4.86652">
        <ele>424</ele>
        <time>2021-02-14T14:46:30.000Z</time>
      </trkpt>
      <trkpt lat="47.17031" lon="4.86647">
        <ele>426</ele>
        <time>2021-02-14T14:46:41.000Z</time>
      </trkpt>
      <trkpt lat="47.17041" lon="4.86644">
        <ele>429</ele>
        <time>2021-02-14T14:46:50.000Z</time>
      </trkpt>
      <trkpt lat="47.1705" lon="4.8664">
        <ele>427</ele>
        <time>2021-02-14T14:47:00.000Z</time>
      </trkpt>
      <trkpt lat="47.17059" lon="4.86635">
        <ele>429</ele>
        <time>2021-02-14T14:47:12.000Z</time>
      </trkpt>
      <trkpt lat="47.1707" lon="4.86629">
        <ele>429</ele>
        <time>2021-02-14T14:47:24.000Z</time>
      </trkpt>
      <trkpt lat="47.17078" lon="4.86624">
        <ele>430</ele>
        <time>2021-02-14T14:47:33.000Z</time>
      </trkpt>
      <trkpt lat="47.17087" lon="4.86618">
        <ele>429</ele>
        <time>2021-02-14T14:47:42.000Z</time>
      </trkpt>
      <trkpt lat="47.17098" lon="4.86612">
        <ele>434</ele>
        <time>2021-02-14T14:47:54.000Z</time>
      </trkpt>
      <trkpt lat="47.17107" lon="4.86607">
        <ele>432</ele>
        <time>2021-02-14T14:48:04.000Z</time>
      </trkpt>
      <trkpt lat="47.17118" lon="4.86603">
        <ele>430</ele>
        <time>2021-02-14T14:48:16.000Z</time>
      </trkpt>
      <trkpt lat="47.17128" lon="4.86599">
        <ele>431</ele>
        <time>2021-02-14T14:48:26.000Z</time>
      </trkpt>
      <trkpt lat="47.17139" lon="4.86596">
        <ele>431</ele>
        <time>2021-02-14T14:48:37.000Z</time>
      </trkpt>
      <trkpt lat="47.17149" lon="4.86594">
        <ele>432</ele>
        <time>2021-02-14T14:48:48.000Z</time>
      </trkpt>
      <trkpt lat="47.17158" lon="4.8659">
        <ele>435</ele>
        <time>2021-02-14T14:48:58.000Z</time>
      </trkpt>
      <trkpt lat="47.17166" lon="4.86585">
        <ele>432</ele>
        <time>2021-02-14T14:49:12.000Z</time>
      </trkpt>
      <trkpt lat="47.17176" lon="4.86578">
        <ele>434</ele>
        <time>2021-02-14T15:02:49.000Z</time>
      </trkpt>
      <trkpt lat="47.17187" lon="4.86574">
        <ele>436</ele>
        <time>2021-02-14T15:03:01.000Z</time>
      </trkpt>
      <trkpt lat="47.17195" lon="4.86569">
        <ele>436</ele>
        <time>2021-02-14T15:03:10.000Z</time>
      </trkpt>
      <trkpt lat="47.17206" lon="4.86564">
        <ele>439</ele>
        <time>2021-02-14T15:03:22.000Z</time>
      </trkpt>
      <trkpt lat="47.17216" lon="4.86554">
        <ele>442</ele>
        <time>2021-02-14T15:03:34.000Z</time>
      </trkpt>
      <trkpt lat="47.17224" lon="4.86544">
        <ele>440</ele>
        <time>2021-02-14T15:03:43.000Z</time>
      </trkpt>
      <trkpt lat="47.1723" lon="4.86533">
        <ele>444</ele>
        <time>2021-02-14T15:03:52.000Z</time>
      </trkpt>
      <trkpt lat="47.17238" lon="4.86524">
        <ele>445</ele>
        <time>2021-02-14T15:04:01.000Z</time>
      </trkpt>
      <trkpt lat="47.17247" lon="4.86512">
        <ele>443</ele>
        <time>2021-02-14T15:04:09.000Z</time>
      </trkpt>
      <trkpt lat="47.17254" lon="4.86502">
        <ele>443</ele>
        <time>2021-02-14T15:04:16.000Z</time>
      </trkpt>
      <trkpt lat="47.17262" lon="4.86493">
        <ele>441</ele>
        <time>2021-02-14T15:04:25.000Z</time>
      </trkpt>
      <trkpt lat="47.17272" lon="4.86483">
        <ele>440</ele>
        <time>2021-02-14T15:04:34.000Z</time>
      </trkpt>
      <trkpt lat="47.1728" lon="4.86474">
        <ele>440</ele>
        <time>2021-02-14T15:04:43.000Z</time>
      </trkpt>
      <trkpt lat="47.17288" lon="4.86467">
        <ele>440</ele>
        <time>2021-02-14T15:04:52.000Z</time>
      </trkpt>
      <trkpt lat="47.17297" lon="4.86459">
        <ele>442</ele>
        <time>2021-02-14T15:05:01.000Z</time>
      </trkpt>
      <trkpt lat="47.17306" lon="4.86451">
        <ele>441</ele>
        <time>2021-02-14T15:05:10.000Z</time>
      </trkpt>
      <trkpt lat="47.17315" lon="4.86443">
        <ele>440</ele>
        <time>2021-02-14T15:05:17.000Z</time>
      </trkpt>
      <trkpt lat="47.17325" lon="4.86437">
        <ele>442</ele>
        <time>2021-02-14T15:05:26.000Z</time>
      </trkpt>
      <trkpt lat="47.17336" lon="4.86432">
        <ele>442</ele>
        <time>2021-02-14T15:05:35.000Z</time>
      </trkpt>
      <trkpt lat="47.17347" lon="4.86429">
        <ele>441</ele>
        <time>2021-02-14T15:05:44.000Z</time>
      </trkpt>
      <trkpt lat="47.17359" lon="4.86426">
        <ele>439</ele>
        <time>2021-02-14T15:05:53.000Z</time>
      </trkpt>
      <trkpt lat="47.17368" lon="4.86421">
        <ele>440</ele>
        <time>2021-02-14T15:06:02.000Z</time>
      </trkpt>
      <trkpt lat="47.17375" lon="4.86412">
        <ele>439</ele>
        <time>2021-02-14T15:06:11.000Z</time>
      </trkpt>
      <trkpt lat="47.1738" lon="4.86401">
        <ele>441</ele>
        <time>2021-02-14T15:06:19.000Z</time>
      </trkpt>
      <trkpt lat="47.17385" lon="4.86388">
        <ele>443</ele>
        <time>2021-02-14T15:06:28.000Z</time>
      </trkpt>
      <trkpt lat="47.17389" lon="4.86376">
        <ele>445</ele>
        <time>2021-02-14T15:06:35.000Z</time>
      </trkpt>
      <trkpt lat="47.1739" lon="4.8636">
        <ele>446</ele>
        <time>2021-02-14T15:06:44.000Z</time>
      </trkpt>
      <trkpt lat="47.17394" lon="4.86342">
        <ele>446</ele>
        <time>2021-02-14T15:06:53.000Z</time>
      </trkpt>
      <trkpt lat="47.17399" lon="4.86325">
        <ele>444</ele>
        <time>2021-02-14T15:07:05.000Z</time>
      </trkpt>
      <trkpt lat="47.17405" lon="4.8631">
        <ele>443</ele>
        <time>2021-02-14T15:07:13.000Z</time>
      </trkpt>
      <trkpt lat="47.17411" lon="4.86298">
        <ele>445</ele>
        <time>2021-02-14T15:07:22.000Z</time>
      </trkpt>
      <trkpt lat="47.17418" lon="4.86286">
        <ele>445</ele>
        <time>2021-02-14T15:07:31.000Z</time>
      </trkpt>
      <trkpt lat="47.17425" lon="4.86272">
        <ele>445</ele>
        <time>2021-02-14T15:07:41.000Z</time>
      </trkpt>
      <trkpt lat="47.17426" lon="4.86256">
        <ele>445</ele>
        <time>2021-02-14T15:07:50.000Z</time>
      </trkpt>
      <trkpt lat="47.17429" lon="4.86241">
        <ele>446</ele>
        <time>2021-02-14T15:07:59.000Z</time>
      </trkpt>
      <trkpt lat="47.17433" lon="4.86225">
        <ele>447</ele>
        <time>2021-02-14T15:08:08.000Z</time>
      </trkpt>
      <trkpt lat="47.17438" lon="4.86211">
        <ele>446</ele>
        <time>2021-02-14T15:08:17.000Z</time>
      </trkpt>
      <trkpt lat="47.17445" lon="4.86199">
        <ele>448</ele>
        <time>2021-02-14T15:08:26.000Z</time>
      </trkpt>
      <trkpt lat="47.17454" lon="4.86194">
        <ele>449</ele>
        <time>2021-02-14T15:08:34.000Z</time>
      </trkpt>
      <trkpt lat="47.17464" lon="4.86193">
        <ele>447</ele>
        <time>2021-02-14T15:08:43.000Z</time>
      </trkpt>
      <trkpt lat="47.17474" lon="4.86193">
        <ele>448</ele>
        <time>2021-02-14T15:08:52.000Z</time>
      </trkpt>
      <trkpt lat="47.17487" lon="4.86191">
        <ele>446</ele>
        <time>2021-02-14T15:09:01.000Z</time>
      </trkpt>
      <trkpt lat="47.175" lon="4.8619">
        <ele>443</ele>
        <time>2021-02-14T15:09:10.000Z</time>
      </trkpt>
      <trkpt lat="47.17512" lon="4.86191">
        <ele>442</ele>
        <time>2021-02-14T15:09:19.000Z</time>
      </trkpt>
      <trkpt lat="47.17521" lon="4.86191">
        <ele>445</ele>
        <time>2021-02-14T15:09:28.000Z</time>
      </trkpt>
      <trkpt lat="47.1753" lon="4.86194">
        <ele>446</ele>
        <time>2021-02-14T15:09:37.000Z</time>
      </trkpt>
      <trkpt lat="47.17541" lon="4.86198">
        <ele>444</ele>
        <time>2021-02-14T15:09:46.000Z</time>
      </trkpt>
      <trkpt lat="47.17552" lon="4.862">
        <ele>446</ele>
        <time>2021-02-14T15:09:55.000Z</time>
      </trkpt>
      <trkpt lat="47.17562" lon="4.86202">
        <ele>448</ele>
        <time>2021-02-14T15:10:03.000Z</time>
      </trkpt>
      <trkpt lat="47.17572" lon="4.86198">
        <ele>449</ele>
        <time>2021-02-14T15:10:13.000Z</time>
      </trkpt>
      <trkpt lat="47.17583" lon="4.8619">
        <ele>451</ele>
        <time>2021-02-14T15:10:24.000Z</time>
      </trkpt>
      <trkpt lat="47.17593" lon="4.86182">
        <ele>451</ele>
        <time>2021-02-14T15:10:33.000Z</time>
      </trkpt>
      <trkpt lat="47.17601" lon="4.86171">
        <ele>451</ele>
        <time>2021-02-14T15:10:42.000Z</time>
      </trkpt>
      <trkpt lat="47.17607" lon="4.86156">
        <ele>449</ele>
        <time>2021-02-14T15:10:51.000Z</time>
      </trkpt>
      <trkpt lat="47.17611" lon="4.86142">
        <ele>449</ele>
        <time>2021-02-14T15:11:00.000Z</time>
      </trkpt>
      <trkpt lat="47.17613" lon="4.86125">
        <ele>449</ele>
        <time>2021-02-14T15:11:10.000Z</time>
      </trkpt>
      <trkpt lat="47.17614" lon="4.86109">
        <ele>449</ele>
        <time>2021-02-14T15:11:19.000Z</time>
      </trkpt>
      <trkpt lat="47.17616" lon="4.86096">
        <ele>449</ele>
        <time>2021-02-14T15:11:27.000Z</time>
      </trkpt>
      <trkpt lat="47.17618" lon="4.86081">
        <ele>449</ele>
        <time>2021-02-14T15:11:35.000Z</time>
      </trkpt>
      <trkpt lat="47.17621" lon="4.86066">
        <ele>451</ele>
        <time>2021-02-14T15:11:44.000Z</time>
      </trkpt>
      <trkpt lat="47.17625" lon="4.86049">
        <ele>449</ele>
        <time>2021-02-14T15:11:53.000Z</time>
      </trkpt>
      <trkpt lat="47.17632" lon="4.86037">
        <ele>451</ele>
        <time>2021-02-14T15:12:02.000Z</time>
      </trkpt>
      <trkpt lat="47.17637" lon="4.86022">
        <ele>452</ele>
        <time>2021-02-14T15:12:11.000Z</time>
      </trkpt>
      <trkpt lat="47.17643" lon="4.86008">
        <ele>452</ele>
        <time>2021-02-14T15:12:20.000Z</time>
      </trkpt>
      <trkpt lat="47.17651" lon="4.85994">
        <ele>452</ele>
        <time>2021-02-14T15:12:29.000Z</time>
      </trkpt>
      <trkpt lat="47.17659" lon="4.85982">
        <ele>451</ele>
        <time>2021-02-14T15:12:39.000Z</time>
      </trkpt>
      <trkpt lat="47.17666" lon="4.85969">
        <ele>450</ele>
        <time>2021-02-14T15:12:48.000Z</time>
      </trkpt>
      <trkpt lat="47.17672" lon="4.85959">
        <ele>453</ele>
        <time>2021-02-14T15:12:57.000Z</time>
      </trkpt>
      <trkpt lat="47.17679" lon="4.85949">
        <ele>457</ele>
        <time>2021-02-14T15:13:06.000Z</time>
      </trkpt>
      <trkpt lat="47.17687" lon="4.85937">
        <ele>458</ele>
        <time>2021-02-14T15:13:15.000Z</time>
      </trkpt>
      <trkpt lat="47.17695" lon="4.85926">
        <ele>456</ele>
        <time>2021-02-14T15:13:24.000Z</time>
      </trkpt>
      <trkpt lat="47.17701" lon="4.85915">
        <ele>458</ele>
        <time>2021-02-14T15:13:30.000Z</time>
      </trkpt>
      <trkpt lat="47.17709" lon="4.85903">
        <ele>456</ele>
        <time>2021-02-14T15:13:39.000Z</time>
      </trkpt>
      <trkpt lat="47.17716" lon="4.8589">
        <ele>458</ele>
        <time>2021-02-14T15:13:48.000Z</time>
      </trkpt>
      <trkpt lat="47.17721" lon="4.85877">
        <ele>457</ele>
        <time>2021-02-14T15:14:12.000Z</time>
      </trkpt>
      <trkpt lat="47.17725" lon="4.85861">
        <ele>457</ele>
        <time>2021-02-14T15:14:23.000Z</time>
      </trkpt>
      <trkpt lat="47.17729" lon="4.85847">
        <ele>458</ele>
        <time>2021-02-14T15:14:32.000Z</time>
      </trkpt>
      <trkpt lat="47.17735" lon="4.85831">
        <ele>461</ele>
        <time>2021-02-14T15:14:43.000Z</time>
      </trkpt>
      <trkpt lat="47.1774" lon="4.85817">
        <ele>461</ele>
        <time>2021-02-14T15:14:52.000Z</time>
      </trkpt>
      <trkpt lat="47.17745" lon="4.85803">
        <ele>461</ele>
        <time>2021-02-14T15:15:01.000Z</time>
      </trkpt>
      <trkpt lat="47.17749" lon="4.85791">
        <ele>462</ele>
        <time>2021-02-14T15:15:10.000Z</time>
      </trkpt>
      <trkpt lat="47.17755" lon="4.85779">
        <ele>464</ele>
        <time>2021-02-14T15:15:19.000Z</time>
      </trkpt>
      <trkpt lat="47.17761" lon="4.85768">
        <ele>466</ele>
        <time>2021-02-14T15:15:28.000Z</time>
      </trkpt>
      <trkpt lat="47.17768" lon="4.85756">
        <ele>462</ele>
        <time>2021-02-14T15:15:37.000Z</time>
      </trkpt>
      <trkpt lat="47.17774" lon="4.85746">
        <ele>459</ele>
        <time>2021-02-14T15:16:09.000Z</time>
      </trkpt>
      <trkpt lat="47.1778" lon="4.85735">
        <ele>458</ele>
        <time>2021-02-14T15:16:17.000Z</time>
      </trkpt>
      <trkpt lat="47.17787" lon="4.85723">
        <ele>458</ele>
        <time>2021-02-14T15:16:26.000Z</time>
      </trkpt>
      <trkpt lat="47.17793" lon="4.85709">
        <ele>455</ele>
        <time>2021-02-14T15:16:35.000Z</time>
      </trkpt>
      <trkpt lat="47.178" lon="4.85696">
        <ele>458</ele>
        <time>2021-02-14T15:16:44.000Z</time>
      </trkpt>
      <trkpt lat="47.17808" lon="4.85686">
        <ele>462</ele>
        <time>2021-02-14T15:16:54.000Z</time>
      </trkpt>
      <trkpt lat="47.17814" lon="4.85674">
        <ele>460</ele>
        <time>2021-02-14T15:17:02.000Z</time>
      </trkpt>
      <trkpt lat="47.17822" lon="4.85664">
        <ele>464</ele>
        <time>2021-02-14T15:17:11.000Z</time>
      </trkpt>
      <trkpt lat="47.1783" lon="4.8565">
        <ele>462</ele>
        <time>2021-02-14T15:17:20.000Z</time>
      </trkpt>
      <trkpt lat="47.17839" lon="4.85635">
        <ele>462</ele>
        <time>2021-02-14T15:17:29.000Z</time>
      </trkpt>
      <trkpt lat="47.17844" lon="4.8562">
        <ele>469</ele>
        <time>2021-02-14T15:17:41.000Z</time>
      </trkpt>
      <trkpt lat="47.17854" lon="4.85607">
        <ele>470</ele>
        <time>2021-02-14T15:17:50.000Z</time>
      </trkpt>
      <trkpt lat="47.17861" lon="4.85592">
        <ele>471</ele>
        <time>2021-02-14T15:17:59.000Z</time>
      </trkpt>
      <trkpt lat="47.17867" lon="4.85581">
        <ele>464</ele>
        <time>2021-02-14T15:18:05.000Z</time>
      </trkpt>
      <trkpt lat="47.17872" lon="4.85568">
        <ele>466</ele>
        <time>2021-02-14T15:18:14.000Z</time>
      </trkpt>
      <trkpt lat="47.17877" lon="4.85556">
        <ele>471</ele>
        <time>2021-02-14T15:18:25.000Z</time>
      </trkpt>
      <trkpt lat="47.17881" lon="4.85544">
        <ele>470</ele>
        <time>2021-02-14T15:18:32.000Z</time>
      </trkpt>
      <trkpt lat="47.17886" lon="4.85527">
        <ele>471</ele>
        <time>2021-02-14T15:18:40.000Z</time>
      </trkpt>
      <trkpt lat="47.17894" lon="4.85513">
        <ele>470</ele>
        <time>2021-02-14T15:18:48.000Z</time>
      </trkpt>
      <trkpt lat="47.17897" lon="4.85497">
        <ele>472</ele>
        <time>2021-02-14T15:18:59.000Z</time>
      </trkpt>
      <trkpt lat="47.17895" lon="4.85479">
        <ele>479</ele>
        <time>2021-02-14T15:19:11.000Z</time>
      </trkpt>
      <trkpt lat="47.17899" lon="4.85467">
        <ele>477</ele>
        <time>2021-02-14T15:19:20.000Z</time>
      </trkpt>
      <trkpt lat="47.17903" lon="4.85451">
        <ele>477</ele>
        <time>2021-02-14T15:19:29.000Z</time>
      </trkpt>
      <trkpt lat="47.17908" lon="4.85434">
        <ele>468</ele>
        <time>2021-02-14T15:19:38.000Z</time>
      </trkpt>
      <trkpt lat="47.17917" lon="4.8542">
        <ele>465</ele>
        <time>2021-02-14T15:19:47.000Z</time>
      </trkpt>
      <trkpt lat="47.17927" lon="4.85409">
        <ele>470</ele>
        <time>2021-02-14T15:19:56.000Z</time>
      </trkpt>
      <trkpt lat="47.17935" lon="4.85399">
        <ele>469</ele>
        <time>2021-02-14T15:20:05.000Z</time>
      </trkpt>
      <trkpt lat="47.17943" lon="4.85386">
        <ele>470</ele>
        <time>2021-02-14T15:20:14.000Z</time>
      </trkpt>
      <trkpt lat="47.17948" lon="4.85374">
        <ele>471</ele>
        <time>2021-02-14T15:20:23.000Z</time>
      </trkpt>
      <trkpt lat="47.17952" lon="4.85363">
        <ele>471</ele>
        <time>2021-02-14T15:20:35.000Z</time>
      </trkpt>
      <trkpt lat="47.17959" lon="4.85348">
        <ele>473</ele>
        <time>2021-02-14T15:20:47.000Z</time>
      </trkpt>
      <trkpt lat="47.17965" lon="4.85338">
        <ele>476</ele>
        <time>2021-02-14T15:20:56.000Z</time>
      </trkpt>
      <trkpt lat="47.17972" lon="4.85327">
        <ele>475</ele>
        <time>2021-02-14T15:21:05.000Z</time>
      </trkpt>
      <trkpt lat="47.17981" lon="4.85315">
        <ele>473</ele>
        <time>2021-02-14T15:21:20.000Z</time>
      </trkpt>
      <trkpt lat="47.1799" lon="4.85302">
        <ele>476</ele>
        <time>2021-02-14T15:21:29.000Z</time>
      </trkpt>
      <trkpt lat="47.17999" lon="4.85295">
        <ele>476</ele>
        <time>2021-02-14T15:21:38.000Z</time>
      </trkpt>
      <trkpt lat="47.18008" lon="4.85283">
        <ele>475</ele>
        <time>2021-02-14T15:21:47.000Z</time>
      </trkpt>
      <trkpt lat="47.18016" lon="4.85268">
        <ele>475</ele>
        <time>2021-02-14T15:21:56.000Z</time>
      </trkpt>
      <trkpt lat="47.18026" lon="4.85258">
        <ele>475</ele>
        <time>2021-02-14T15:22:05.000Z</time>
      </trkpt>
      <trkpt lat="47.18033" lon="4.8525">
        <ele>473</ele>
        <time>2021-02-14T15:22:14.000Z</time>
      </trkpt>
      <trkpt lat="47.18039" lon="4.85237">
        <ele>480</ele>
        <time>2021-02-14T15:22:24.000Z</time>
      </trkpt>
      <trkpt lat="47.18046" lon="4.85228">
        <ele>478</ele>
        <time>2021-02-14T15:22:31.000Z</time>
      </trkpt>
      <trkpt lat="47.18052" lon="4.85217">
        <ele>481</ele>
        <time>2021-02-14T15:22:40.000Z</time>
      </trkpt>
      <trkpt lat="47.18057" lon="4.85205">
        <ele>483</ele>
        <time>2021-02-14T15:22:51.000Z</time>
      </trkpt>
      <trkpt lat="47.18062" lon="4.85194">
        <ele>486</ele>
        <time>2021-02-14T15:23:02.000Z</time>
      </trkpt>
      <trkpt lat="47.18068" lon="4.85183">
        <ele>490</ele>
        <time>2021-02-14T15:23:13.000Z</time>
      </trkpt>
      <trkpt lat="47.18075" lon="4.85172">
        <ele>490</ele>
        <time>2021-02-14T15:23:20.000Z</time>
      </trkpt>
      <trkpt lat="47.18083" lon="4.85161">
        <ele>487</ele>
        <time>2021-02-14T15:23:27.000Z</time>
      </trkpt>
      <trkpt lat="47.18092" lon="4.85148">
        <ele>488</ele>
        <time>2021-02-14T15:23:36.000Z</time>
      </trkpt>
      <trkpt lat="47.18099" lon="4.85139">
        <ele>485</ele>
        <time>2021-02-14T15:23:42.000Z</time>
      </trkpt>
      <trkpt lat="47.18108" lon="4.85126">
        <ele>484</ele>
        <time>2021-02-14T15:23:51.000Z</time>
      </trkpt>
      <trkpt lat="47.18118" lon="4.8511">
        <ele>482</ele>
        <time>2021-02-14T15:24:03.000Z</time>
      </trkpt>
      <trkpt lat="47.18126" lon="4.85102">
        <ele>486</ele>
        <time>2021-02-14T15:24:12.000Z</time>
      </trkpt>
      <trkpt lat="47.18135" lon="4.85091">
        <ele>485</ele>
        <time>2021-02-14T15:24:20.000Z</time>
      </trkpt>
      <trkpt lat="47.18142" lon="4.85081">
        <ele>485</ele>
        <time>2021-02-14T15:24:29.000Z</time>
      </trkpt>
      <trkpt lat="47.1815" lon="4.85071">
        <ele>483</ele>
        <time>2021-02-14T15:24:38.000Z</time>
      </trkpt>
      <trkpt lat="47.18158" lon="4.8506">
        <ele>486</ele>
        <time>2021-02-14T15:24:48.000Z</time>
      </trkpt>
      <trkpt lat="47.18168" lon="4.85052">
        <ele>483</ele>
        <time>2021-02-14T15:24:57.000Z</time>
      </trkpt>
      <trkpt lat="47.18177" lon="4.85047">
        <ele>484</ele>
        <time>2021-02-14T15:25:05.000Z</time>
      </trkpt>
      <trkpt lat="47.18187" lon="4.8504">
        <ele>483</ele>
        <time>2021-02-14T15:25:13.000Z</time>
      </trkpt>
      <trkpt lat="47.18198" lon="4.85031">
        <ele>482</ele>
        <time>2021-02-14T15:25:22.000Z</time>
      </trkpt>
      <trkpt lat="47.18207" lon="4.85027">
        <ele>482</ele>
        <time>2021-02-14T15:25:28.000Z</time>
      </trkpt>
      <trkpt lat="47.18216" lon="4.8502">
        <ele>484</ele>
        <time>2021-02-14T15:25:37.000Z</time>
      </trkpt>
      <trkpt lat="47.18227" lon="4.85014">
        <ele>483</ele>
        <time>2021-02-14T15:25:46.000Z</time>
      </trkpt>
      <trkpt lat="47.18239" lon="4.8501">
        <ele>484</ele>
        <time>2021-02-14T15:25:57.000Z</time>
      </trkpt>
      <trkpt lat="47.1825" lon="4.85006">
        <ele>485</ele>
        <time>2021-02-14T15:26:07.000Z</time>
      </trkpt>
      <trkpt lat="47.18261" lon="4.85002">
        <ele>486</ele>
        <time>2021-02-14T15:26:17.000Z</time>
      </trkpt>
      <trkpt lat="47.1827" lon="4.84997">
        <ele>485</ele>
        <time>2021-02-14T15:26:27.000Z</time>
      </trkpt>
      <trkpt lat="47.18282" lon="4.84991">
        <ele>487</ele>
        <time>2021-02-14T15:26:37.000Z</time>
      </trkpt>
      <trkpt lat="47.18293" lon="4.84985">
        <ele>492</ele>
        <time>2021-02-14T15:26:50.000Z</time>
      </trkpt>
      <trkpt lat="47.18305" lon="4.84979">
        <ele>493</ele>
        <time>2021-02-14T15:27:01.000Z</time>
      </trkpt>
      <trkpt lat="47.18314" lon="4.84975">
        <ele>494</ele>
        <time>2021-02-14T15:27:16.000Z</time>
      </trkpt>
      <trkpt lat="47.18324" lon="4.84973">
        <ele>497</ele>
        <time>2021-02-14T15:27:28.000Z</time>
      </trkpt>
      <trkpt lat="47.18333" lon="4.84972">
        <ele>500</ele>
        <time>2021-02-14T15:27:44.000Z</time>
      </trkpt>
      <trkpt lat="47.18345" lon="4.84969">
        <ele>500</ele>
        <time>2021-02-14T15:28:08.000Z</time>
      </trkpt>
      <trkpt lat="47.18355" lon="4.84969">
        <ele>500</ele>
        <time>2021-02-14T15:28:20.000Z</time>
      </trkpt>
      <trkpt lat="47.18366" lon="4.84972">
        <ele>503</ele>
        <time>2021-02-14T15:28:32.000Z</time>
      </trkpt>
      <trkpt lat="47.18376" lon="4.84977">
        <ele>503</ele>
        <time>2021-02-14T15:28:43.000Z</time>
      </trkpt>
      <trkpt lat="47.18385" lon="4.84978">
        <ele>504</ele>
        <time>2021-02-14T15:28:52.000Z</time>
      </trkpt>
      <trkpt lat="47.18396" lon="4.84979">
        <ele>504</ele>
        <time>2021-02-14T15:29:04.000Z</time>
      </trkpt>
      <trkpt lat="47.18406" lon="4.84979">
        <ele>505</ele>
        <time>2021-02-14T15:29:13.000Z</time>
      </trkpt>
      <trkpt lat="47.18417" lon="4.8498">
        <ele>509</ele>
        <time>2021-02-14T15:29:23.000Z</time>
      </trkpt>
      <trkpt lat="47.18426" lon="4.84983">
        <ele>511</ele>
        <time>2021-02-14T15:29:31.000Z</time>
      </trkpt>
      <trkpt lat="47.18435" lon="4.84989">
        <ele>509</ele>
        <time>2021-02-14T15:29:40.000Z</time>
      </trkpt>
      <trkpt lat="47.18445" lon="4.84995">
        <ele>506</ele>
        <time>2021-02-14T15:29:50.000Z</time>
      </trkpt>
      <trkpt lat="47.18454" lon="4.85001">
        <ele>504</ele>
        <time>2021-02-14T15:29:59.000Z</time>
      </trkpt>
      <trkpt lat="47.18463" lon="4.85009">
        <ele>502</ele>
        <time>2021-02-14T15:30:08.000Z</time>
      </trkpt>
      <trkpt lat="47.18472" lon="4.85016">
        <ele>500</ele>
        <time>2021-02-14T15:30:17.000Z</time>
      </trkpt>
      <trkpt lat="47.18481" lon="4.85023">
        <ele>499</ele>
        <time>2021-02-14T15:30:30.000Z</time>
      </trkpt>
      <trkpt lat="47.18491" lon="4.85033">
        <ele>497</ele>
        <time>2021-02-14T15:30:42.000Z</time>
      </trkpt>
      <trkpt lat="47.18499" lon="4.85043">
        <ele>494</ele>
        <time>2021-02-14T15:30:56.000Z</time>
      </trkpt>
      <trkpt lat="47.18508" lon="4.8505">
        <ele>497</ele>
        <time>2021-02-14T15:31:12.000Z</time>
      </trkpt>
      <trkpt lat="47.18512" lon="4.85062">
        <ele>501</ele>
        <time>2021-02-14T15:31:33.000Z</time>
      </trkpt>
      <trkpt lat="47.18515" lon="4.85075">
        <ele>504</ele>
        <time>2021-02-14T15:31:51.000Z</time>
      </trkpt>
      <trkpt lat="47.18518" lon="4.85088">
        <ele>498</ele>
        <time>2021-02-14T15:32:10.000Z</time>
      </trkpt>
      <trkpt lat="47.18524" lon="4.85098">
        <ele>499</ele>
        <time>2021-02-14T15:32:33.000Z</time>
      </trkpt>
      <trkpt lat="47.18531" lon="4.85106">
        <ele>495</ele>
        <time>2021-02-14T15:32:51.000Z</time>
      </trkpt>
      <trkpt lat="47.18538" lon="4.85115">
        <ele>500</ele>
        <time>2021-02-14T15:33:09.000Z</time>
      </trkpt>
      <trkpt lat="47.18545" lon="4.85125">
        <ele>500</ele>
        <time>2021-02-14T15:33:32.000Z</time>
      </trkpt>
      <trkpt lat="47.18551" lon="4.85136">
        <ele>495</ele>
        <time>2021-02-14T15:33:46.000Z</time>
      </trkpt>
      <trkpt lat="47.18555" lon="4.85151">
        <ele>493</ele>
        <time>2021-02-14T15:33:58.000Z</time>
      </trkpt>
      <trkpt lat="47.18559" lon="4.85167">
        <ele>493</ele>
        <time>2021-02-14T15:34:16.000Z</time>
      </trkpt>
      <trkpt lat="47.18559" lon="4.85181">
        <ele>490</ele>
        <time>2021-02-14T15:34:25.000Z</time>
      </trkpt>
      <trkpt lat="47.18559" lon="4.85196">
        <ele>489</ele>
        <time>2021-02-14T15:34:32.000Z</time>
      </trkpt>
      <trkpt lat="47.18557" lon="4.8521">
        <ele>491</ele>
        <time>2021-02-14T15:34:41.000Z</time>
      </trkpt>
      <trkpt lat="47.18554" lon="4.85223">
        <ele>489</ele>
        <time>2021-02-14T15:34:49.000Z</time>
      </trkpt>
      <trkpt lat="47.18551" lon="4.85235">
        <ele>488</ele>
        <time>2021-02-14T15:34:58.000Z</time>
      </trkpt>
      <trkpt lat="47.18548" lon="4.8525">
        <ele>490</ele>
        <time>2021-02-14T15:35:11.000Z</time>
      </trkpt>
      <trkpt lat="47.18545" lon="4.85265">
        <ele>492</ele>
        <time>2021-02-14T15:35:23.000Z</time>
      </trkpt>
      <trkpt lat="47.1854" lon="4.85278">
        <ele>493</ele>
        <time>2021-02-14T15:35:36.000Z</time>
      </trkpt>
      <trkpt lat="47.18542" lon="4.85294">
        <ele>498</ele>
        <time>2021-02-14T15:35:51.000Z</time>
      </trkpt>
      <trkpt lat="47.18539" lon="4.85308">
        <ele>500</ele>
        <time>2021-02-14T15:36:00.000Z</time>
      </trkpt>
      <trkpt lat="47.18535" lon="4.85321">
        <ele>505</ele>
        <time>2021-02-14T15:36:12.000Z</time>
      </trkpt>
      <trkpt lat="47.18535" lon="4.85337">
        <ele>502</ele>
        <time>2021-02-14T15:36:21.000Z</time>
      </trkpt>
      <trkpt lat="47.18538" lon="4.8535">
        <ele>502</ele>
        <time>2021-02-14T15:36:33.000Z</time>
      </trkpt>
      <trkpt lat="47.18544" lon="4.85367">
        <ele>502</ele>
        <time>2021-02-14T15:36:44.000Z</time>
      </trkpt>
      <trkpt lat="47.18549" lon="4.85378">
        <ele>503</ele>
        <time>2021-02-14T15:36:55.000Z</time>
      </trkpt>
      <trkpt lat="47.1855" lon="4.85392">
        <ele>499</ele>
        <time>2021-02-14T15:37:07.000Z</time>
      </trkpt>
      <trkpt lat="47.18556" lon="4.85408">
        <ele>500</ele>
        <time>2021-02-14T15:37:22.000Z</time>
      </trkpt>
      <trkpt lat="47.18562" lon="4.85418">
        <ele>498</ele>
        <time>2021-02-14T15:37:37.000Z</time>
      </trkpt>
      <trkpt lat="47.18566" lon="4.85431">
        <ele>491</ele>
        <time>2021-02-14T15:37:45.000Z</time>
      </trkpt>
      <trkpt lat="47.18565" lon="4.85447">
        <ele>492</ele>
        <time>2021-02-14T15:37:56.000Z</time>
      </trkpt>
      <trkpt lat="47.18565" lon="4.85461">
        <ele>492</ele>
        <time>2021-02-14T15:38:14.000Z</time>
      </trkpt>
      <trkpt lat="47.18569" lon="4.85476">
        <ele>489</ele>
        <time>2021-02-14T15:38:29.000Z</time>
      </trkpt>
      <trkpt lat="47.18573" lon="4.85489">
        <ele>483</ele>
        <time>2021-02-14T15:38:40.000Z</time>
      </trkpt>
      <trkpt lat="47.18576" lon="4.85506">
        <ele>482</ele>
        <time>2021-02-14T15:38:59.000Z</time>
      </trkpt>
      <trkpt lat="47.1858" lon="4.85519">
        <ele>481</ele>
        <time>2021-02-14T15:39:27.000Z</time>
      </trkpt>
      <trkpt lat="47.18578" lon="4.85533">
        <ele>475</ele>
        <time>2021-02-14T15:39:48.000Z</time>
      </trkpt>
      <trkpt lat="47.18568" lon="4.85537">
        <ele>470</ele>
        <time>2021-02-14T15:40:05.000Z</time>
      </trkpt>
      <trkpt lat="47.18561" lon="4.85545">
        <ele>472</ele>
        <time>2021-02-14T15:40:22.000Z</time>
      </trkpt>
      <trkpt lat="47.18552" lon="4.85547">
        <ele>470</ele>
        <time>2021-02-14T15:40:30.000Z</time>
      </trkpt>
      <trkpt lat="47.18544" lon="4.85555">
        <ele>481</ele>
        <time>2021-02-14T15:40:46.000Z</time>
      </trkpt>
      <trkpt lat="47.1854" lon="4.85568">
        <ele>488</ele>
        <time>2021-02-14T15:40:59.000Z</time>
      </trkpt>
      <trkpt lat="47.18538" lon="4.85582">
        <ele>483</ele>
        <time>2021-02-14T15:41:08.000Z</time>
      </trkpt>
      <trkpt lat="47.18534" lon="4.85599">
        <ele>484</ele>
        <time>2021-02-14T15:41:20.000Z</time>
      </trkpt>
      <trkpt lat="47.18539" lon="4.85611">
        <ele>492</ele>
        <time>2021-02-14T15:41:32.000Z</time>
      </trkpt>
      <trkpt lat="47.18544" lon="4.85624">
        <ele>484</ele>
        <time>2021-02-14T15:41:53.000Z</time>
      </trkpt>
      <trkpt lat="47.18554" lon="4.85631">
        <ele>481</ele>
        <time>2021-02-14T15:42:09.000Z</time>
      </trkpt>
      <trkpt lat="47.18559" lon="4.85644">
        <ele>482</ele>
        <time>2021-02-14T15:42:29.000Z</time>
      </trkpt>
      <trkpt lat="47.18562" lon="4.85665">
        <ele>479</ele>
        <time>2021-02-14T15:42:41.000Z</time>
      </trkpt>
      <trkpt lat="47.18563" lon="4.85678">
        <ele>479</ele>
        <time>2021-02-14T15:42:49.000Z</time>
      </trkpt>
      <trkpt lat="47.18567" lon="4.85692">
        <ele>476</ele>
        <time>2021-02-14T15:42:56.000Z</time>
      </trkpt>
      <trkpt lat="47.18569" lon="4.85707">
        <ele>475</ele>
        <time>2021-02-14T15:43:03.000Z</time>
      </trkpt>
      <trkpt lat="47.18569" lon="4.85723">
        <ele>469</ele>
        <time>2021-02-14T15:43:12.000Z</time>
      </trkpt>
      <trkpt lat="47.18566" lon="4.85737">
        <ele>472</ele>
        <time>2021-02-14T15:43:21.000Z</time>
      </trkpt>
      <trkpt lat="47.18568" lon="4.85753">
        <ele>471</ele>
        <time>2021-02-14T15:43:33.000Z</time>
      </trkpt>
      <trkpt lat="47.1857" lon="4.85768">
        <ele>472</ele>
        <time>2021-02-14T15:43:42.000Z</time>
      </trkpt>
      <trkpt lat="47.18571" lon="4.85788">
        <ele>471</ele>
        <time>2021-02-14T15:43:54.000Z</time>
      </trkpt>
      <trkpt lat="47.18569" lon="4.85802">
        <ele>465</ele>
        <time>2021-02-14T15:44:05.000Z</time>
      </trkpt>
      <trkpt lat="47.18564" lon="4.85816">
        <ele>466</ele>
        <time>2021-02-14T15:44:16.000Z</time>
      </trkpt>
      <trkpt lat="47.1856" lon="4.8583">
        <ele>468</ele>
        <time>2021-02-14T15:44:25.000Z</time>
      </trkpt>
      <trkpt lat="47.18558" lon="4.85848">
        <ele>465</ele>
        <time>2021-02-14T15:44:34.000Z</time>
      </trkpt>
      <trkpt lat="47.18555" lon="4.85864">
        <ele>465</ele>
        <time>2021-02-14T15:44:46.000Z</time>
      </trkpt>
      <trkpt lat="47.18553" lon="4.85878">
        <ele>466</ele>
        <time>2021-02-14T15:44:52.000Z</time>
      </trkpt>
      <trkpt lat="47.18551" lon="4.85894">
        <ele>469</ele>
        <time>2021-02-14T15:45:03.000Z</time>
      </trkpt>
      <trkpt lat="47.18546" lon="4.85909">
        <ele>466</ele>
        <time>2021-02-14T15:45:14.000Z</time>
      </trkpt>
      <trkpt lat="47.1854" lon="4.85923">
        <ele>462</ele>
        <time>2021-02-14T15:45:23.000Z</time>
      </trkpt>
      <trkpt lat="47.18539" lon="4.85942">
        <ele>463</ele>
        <time>2021-02-14T15:45:32.000Z</time>
      </trkpt>
      <trkpt lat="47.18535" lon="4.85959">
        <ele>457</ele>
        <time>2021-02-14T15:45:41.000Z</time>
      </trkpt>
      <trkpt lat="47.18535" lon="4.85977">
        <ele>461</ele>
        <time>2021-02-14T15:45:53.000Z</time>
      </trkpt>
      <trkpt lat="47.18535" lon="4.85991">
        <ele>463</ele>
        <time>2021-02-14T15:46:02.000Z</time>
      </trkpt>
      <trkpt lat="47.18538" lon="4.8601">
        <ele>465</ele>
        <time>2021-02-14T15:46:11.000Z</time>
      </trkpt>
      <trkpt lat="47.18541" lon="4.86023">
        <ele>466</ele>
        <time>2021-02-14T15:46:20.000Z</time>
      </trkpt>
      <trkpt lat="47.18541" lon="4.86037">
        <ele>466</ele>
        <time>2021-02-14T15:46:29.000Z</time>
      </trkpt>
      <trkpt lat="47.18545" lon="4.86056">
        <ele>468</ele>
        <time>2021-02-14T15:46:38.000Z</time>
      </trkpt>
      <trkpt lat="47.18543" lon="4.86075">
        <ele>464</ele>
        <time>2021-02-14T15:46:47.000Z</time>
      </trkpt>
      <trkpt lat="47.18539" lon="4.86088">
        <ele>468</ele>
        <time>2021-02-14T15:46:54.000Z</time>
      </trkpt>
      <trkpt lat="47.18535" lon="4.86103">
        <ele>468</ele>
        <time>2021-02-14T15:47:04.000Z</time>
      </trkpt>
      <trkpt lat="47.18535" lon="4.8612">
        <ele>473</ele>
        <time>2021-02-14T15:47:16.000Z</time>
      </trkpt>
      <trkpt lat="47.18533" lon="4.86133">
        <ele>475</ele>
        <time>2021-02-14T15:47:25.000Z</time>
      </trkpt>
      <trkpt lat="47.18529" lon="4.86149">
        <ele>474</ele>
        <time>2021-02-14T15:47:34.000Z</time>
      </trkpt>
      <trkpt lat="47.18528" lon="4.86165">
        <ele>479</ele>
        <time>2021-02-14T15:47:44.000Z</time>
      </trkpt>
      <trkpt lat="47.18526" lon="4.86179">
        <ele>481</ele>
        <time>2021-02-14T15:47:53.000Z</time>
      </trkpt>
      <trkpt lat="47.18522" lon="4.86193">
        <ele>480</ele>
        <time>2021-02-14T15:48:02.000Z</time>
      </trkpt>
      <trkpt lat="47.18515" lon="4.86205">
        <ele>477</ele>
        <time>2021-02-14T15:48:11.000Z</time>
      </trkpt>
      <trkpt lat="47.18512" lon="4.86219">
        <ele>479</ele>
        <time>2021-02-14T15:48:20.000Z</time>
      </trkpt>
      <trkpt lat="47.1851" lon="4.86236">
        <ele>484</ele>
        <time>2021-02-14T15:48:32.000Z</time>
      </trkpt>
      <trkpt lat="47.18511" lon="4.86257">
        <ele>485</ele>
        <time>2021-02-14T15:48:40.000Z</time>
      </trkpt>
      <trkpt lat="47.18506" lon="4.86273">
        <ele>487</ele>
        <time>2021-02-14T15:48:49.000Z</time>
      </trkpt>
      <trkpt lat="47.18502" lon="4.86285">
        <ele>485</ele>
        <time>2021-02-14T15:48:55.000Z</time>
      </trkpt>
      <trkpt lat="47.18504" lon="4.86303">
        <ele>484</ele>
        <time>2021-02-14T15:49:04.000Z</time>
      </trkpt>
      <trkpt lat="47.18501" lon="4.86321">
        <ele>487</ele>
        <time>2021-02-14T15:49:13.000Z</time>
      </trkpt>
      <trkpt lat="47.18505" lon="4.86339">
        <ele>482</ele>
        <time>2021-02-14T15:49:22.000Z</time>
      </trkpt>
      <trkpt lat="47.18496" lon="4.86348">
        <ele>482</ele>
        <time>2021-02-14T15:49:38.000Z</time>
      </trkpt>
      <trkpt lat="47.18495" lon="4.86363">
        <ele>483</ele>
        <time>2021-02-14T15:50:30.000Z</time>
      </trkpt>
      <trkpt lat="47.18494" lon="4.86379">
        <ele>486</ele>
        <time>2021-02-14T15:50:36.000Z</time>
      </trkpt>
      <trkpt lat="47.18491" lon="4.86397">
        <ele>491</ele>
        <time>2021-02-14T15:50:45.000Z</time>
      </trkpt>
      <trkpt lat="47.18492" lon="4.86413">
        <ele>484</ele>
        <time>2021-02-14T15:50:54.000Z</time>
      </trkpt>
      <trkpt lat="47.18488" lon="4.86424">
        <ele>487</ele>
        <time>2021-02-14T15:51:02.000Z</time>
      </trkpt>
      <trkpt lat="47.18484" lon="4.86437">
        <ele>486</ele>
        <time>2021-02-14T15:51:11.000Z</time>
      </trkpt>
      <trkpt lat="47.1848" lon="4.8645">
        <ele>484</ele>
        <time>2021-02-14T15:51:19.000Z</time>
      </trkpt>
      <trkpt lat="47.18478" lon="4.86465">
        <ele>482</ele>
        <time>2021-02-14T15:51:28.000Z</time>
      </trkpt>
      <trkpt lat="47.18474" lon="4.86482">
        <ele>481</ele>
        <time>2021-02-14T15:51:40.000Z</time>
      </trkpt>
      <trkpt lat="47.1847" lon="4.86499">
        <ele>477</ele>
        <time>2021-02-14T15:51:50.000Z</time>
      </trkpt>
      <trkpt lat="47.18469" lon="4.86513">
        <ele>478</ele>
        <time>2021-02-14T15:51:57.000Z</time>
      </trkpt>
      <trkpt lat="47.18462" lon="4.86521">
        <ele>481</ele>
        <time>2021-02-14T15:52:06.000Z</time>
      </trkpt>
      <trkpt lat="47.18458" lon="4.86537">
        <ele>486</ele>
        <time>2021-02-14T15:52:18.000Z</time>
      </trkpt>
      <trkpt lat="47.18457" lon="4.86551">
        <ele>488</ele>
        <time>2021-02-14T15:52:24.000Z</time>
      </trkpt>
      <trkpt lat="47.18455" lon="4.86564">
        <ele>488</ele>
        <time>2021-02-14T15:52:30.000Z</time>
      </trkpt>
      <trkpt lat="47.18448" lon="4.86577">
        <ele>484</ele>
        <time>2021-02-14T15:52:39.000Z</time>
      </trkpt>
      <trkpt lat="47.18448" lon="4.86591">
        <ele>483</ele>
        <time>2021-02-14T15:52:48.000Z</time>
      </trkpt>
      <trkpt lat="47.18442" lon="4.86606">
        <ele>482</ele>
        <time>2021-02-14T15:52:57.000Z</time>
      </trkpt>
      <trkpt lat="47.18438" lon="4.86622">
        <ele>480</ele>
        <time>2021-02-14T15:53:06.000Z</time>
      </trkpt>
      <trkpt lat="47.18435" lon="4.86635">
        <ele>484</ele>
        <time>2021-02-14T15:53:20.000Z</time>
      </trkpt>
      <trkpt lat="47.18433" lon="4.86649">
        <ele>469</ele>
        <time>2021-02-14T15:53:29.000Z</time>
      </trkpt>
      <trkpt lat="47.18428" lon="4.86661">
        <ele>471</ele>
        <time>2021-02-14T15:53:41.000Z</time>
      </trkpt>
      <trkpt lat="47.18422" lon="4.86672">
        <ele>473</ele>
        <time>2021-02-14T15:53:52.000Z</time>
      </trkpt>
      <trkpt lat="47.18418" lon="4.86687">
        <ele>480</ele>
        <time>2021-02-14T15:54:06.000Z</time>
      </trkpt>
      <trkpt lat="47.18409" lon="4.86694">
        <ele>470</ele>
        <time>2021-02-14T15:54:15.000Z</time>
      </trkpt>
      <trkpt lat="47.18401" lon="4.86708">
        <ele>467</ele>
        <time>2021-02-14T15:54:30.000Z</time>
      </trkpt>
      <trkpt lat="47.18395" lon="4.86718">
        <ele>463</ele>
        <time>2021-02-14T15:54:36.000Z</time>
      </trkpt>
      <trkpt lat="47.18389" lon="4.8673">
        <ele>460</ele>
        <time>2021-02-14T15:54:42.000Z</time>
      </trkpt>
      <trkpt lat="47.18383" lon="4.86741">
        <ele>453</ele>
        <time>2021-02-14T15:54:48.000Z</time>
      </trkpt>
      <trkpt lat="47.18379" lon="4.86754">
        <ele>465</ele>
        <time>2021-02-14T15:54:54.000Z</time>
      </trkpt>
      <trkpt lat="47.18378" lon="4.86768">
        <ele>463</ele>
        <time>2021-02-14T15:55:00.000Z</time>
      </trkpt>
      <trkpt lat="47.18381" lon="4.86781">
        <ele>461</ele>
        <time>2021-02-14T15:55:08.000Z</time>
      </trkpt>
      <trkpt lat="47.1838" lon="4.86795">
        <ele>464</ele>
        <time>2021-02-14T15:55:15.000Z</time>
      </trkpt>
      <trkpt lat="47.18377" lon="4.86813">
        <ele>466</ele>
        <time>2021-02-14T15:55:23.000Z</time>
      </trkpt>
      <trkpt lat="47.18367" lon="4.86822">
        <ele>470</ele>
        <time>2021-02-14T15:55:32.000Z</time>
      </trkpt>
      <trkpt lat="47.18368" lon="4.86839">
        <ele>470</ele>
        <time>2021-02-14T15:55:41.000Z</time>
      </trkpt>
      <trkpt lat="47.1837" lon="4.86853">
        <ele>468</ele>
        <time>2021-02-14T15:55:50.000Z</time>
      </trkpt>
      <trkpt lat="47.1837" lon="4.8687">
        <ele>462</ele>
        <time>2021-02-14T15:56:02.000Z</time>
      </trkpt>
      <trkpt lat="47.18367" lon="4.86884">
        <ele>461</ele>
        <time>2021-02-14T15:56:11.000Z</time>
      </trkpt>
      <trkpt lat="47.18368" lon="4.869">
        <ele>458</ele>
        <time>2021-02-14T15:56:20.000Z</time>
      </trkpt>
      <trkpt lat="47.18371" lon="4.86914">
        <ele>455</ele>
        <time>2021-02-14T15:56:29.000Z</time>
      </trkpt>
      <trkpt lat="47.18372" lon="4.86931">
        <ele>455</ele>
        <time>2021-02-14T15:56:38.000Z</time>
      </trkpt>
      <trkpt lat="47.18368" lon="4.86946">
        <ele>454</ele>
        <time>2021-02-14T15:56:47.000Z</time>
      </trkpt>
      <trkpt lat="47.18361" lon="4.86955">
        <ele>453</ele>
        <time>2021-02-14T15:56:56.000Z</time>
      </trkpt>
      <trkpt lat="47.18354" lon="4.86969">
        <ele>457</ele>
        <time>2021-02-14T15:57:08.000Z</time>
      </trkpt>
      <trkpt lat="47.18348" lon="4.8698">
        <ele>457</ele>
        <time>2021-02-14T15:57:17.000Z</time>
      </trkpt>
      <trkpt lat="47.18342" lon="4.86991">
        <ele>458</ele>
        <time>2021-02-14T15:57:26.000Z</time>
      </trkpt>
      <trkpt lat="47.18333" lon="4.87">
        <ele>456</ele>
        <time>2021-02-14T15:57:35.000Z</time>
      </trkpt>
      <trkpt lat="47.18326" lon="4.87009">
        <ele>456</ele>
        <time>2021-02-14T15:57:44.000Z</time>
      </trkpt>
      <trkpt lat="47.18317" lon="4.87016">
        <ele>455</ele>
        <time>2021-02-14T15:57:55.000Z</time>
      </trkpt>
      <trkpt lat="47.18311" lon="4.8703">
        <ele>457</ele>
        <time>2021-02-14T15:58:06.000Z</time>
      </trkpt>
      <trkpt lat="47.18305" lon="4.87043">
        <ele>461</ele>
        <time>2021-02-14T15:58:16.000Z</time>
      </trkpt>
      <trkpt lat="47.18298" lon="4.87056">
        <ele>462</ele>
        <time>2021-02-14T15:58:27.000Z</time>
      </trkpt>
      <trkpt lat="47.18292" lon="4.87068">
        <ele>461</ele>
        <time>2021-02-14T15:58:35.000Z</time>
      </trkpt>
      <trkpt lat="47.1829" lon="4.87084">
        <ele>463</ele>
        <time>2021-02-14T15:58:47.000Z</time>
      </trkpt>
      <trkpt lat="47.18284" lon="4.87096">
        <ele>462</ele>
        <time>2021-02-14T15:58:56.000Z</time>
      </trkpt>
      <trkpt lat="47.18279" lon="4.87107">
        <ele>460</ele>
        <time>2021-02-14T15:59:05.000Z</time>
      </trkpt>
      <trkpt lat="47.18274" lon="4.8712">
        <ele>454</ele>
        <time>2021-02-14T15:59:14.000Z</time>
      </trkpt>
      <trkpt lat="47.18266" lon="4.87127">
        <ele>453</ele>
        <time>2021-02-14T15:59:23.000Z</time>
      </trkpt>
      <trkpt lat="47.18266" lon="4.87145">
        <ele>445</ele>
        <time>2021-02-14T15:59:40.000Z</time>
      </trkpt>
      <trkpt lat="47.18257" lon="4.87156">
        <ele>444</ele>
        <time>2021-02-14T16:00:21.000Z</time>
      </trkpt>
      <trkpt lat="47.18251" lon="4.87166">
        <ele>451</ele>
        <time>2021-02-14T16:00:47.000Z</time>
      </trkpt>
      <trkpt lat="47.18247" lon="4.8718">
        <ele>440</ele>
        <time>2021-02-14T16:01:05.000Z</time>
      </trkpt>
      <trkpt lat="47.18245" lon="4.87195">
        <ele>431</ele>
        <time>2021-02-14T16:01:34.000Z</time>
      </trkpt>
      <trkpt lat="47.1824" lon="4.87208">
        <ele>431</ele>
        <time>2021-02-14T16:01:56.000Z</time>
      </trkpt>
      <trkpt lat="47.18242" lon="4.87225">
        <ele>424</ele>
        <time>2021-02-14T16:02:48.000Z</time>
      </trkpt>
      <trkpt lat="47.18242" lon="4.87238">
        <ele>421</ele>
        <time>2021-02-14T16:03:04.000Z</time>
      </trkpt>
      <trkpt lat="47.18235" lon="4.87247">
        <ele>415</ele>
        <time>2021-02-14T16:03:13.000Z</time>
      </trkpt>
      <trkpt lat="47.18227" lon="4.87257">
        <ele>414</ele>
        <time>2021-02-14T16:03:19.000Z</time>
      </trkpt>
      <trkpt lat="47.18219" lon="4.87264">
        <ele>415</ele>
        <time>2021-02-14T16:03:24.000Z</time>
      </trkpt>
      <trkpt lat="47.18214" lon="4.87276">
        <ele>416</ele>
        <time>2021-02-14T16:03:35.000Z</time>
      </trkpt>
      <trkpt lat="47.18211" lon="4.87288">
        <ele>412</ele>
        <time>2021-02-14T16:03:43.000Z</time>
      </trkpt>
      <trkpt lat="47.18205" lon="4.87299">
        <ele>406</ele>
        <time>2021-02-14T16:03:51.000Z</time>
      </trkpt>
      <trkpt lat="47.18198" lon="4.87312">
        <ele>403</ele>
        <time>2021-02-14T16:04:02.000Z</time>
      </trkpt>
      <trkpt lat="47.18194" lon="4.87326">
        <ele>402</ele>
        <time>2021-02-14T16:04:10.000Z</time>
      </trkpt>
      <trkpt lat="47.18187" lon="4.87342">
        <ele>399</ele>
        <time>2021-02-14T16:04:23.000Z</time>
      </trkpt>
      <trkpt lat="47.18184" lon="4.87355">
        <ele>398</ele>
        <time>2021-02-14T16:04:29.000Z</time>
      </trkpt>
      <trkpt lat="47.18177" lon="4.87365">
        <ele>398</ele>
        <time>2021-02-14T16:04:41.000Z</time>
      </trkpt>
      <trkpt lat="47.18171" lon="4.87377">
        <ele>397</ele>
        <time>2021-02-14T16:04:52.000Z</time>
      </trkpt>
      <trkpt lat="47.18166" lon="4.87389">
        <ele>396</ele>
        <time>2021-02-14T16:04:59.000Z</time>
      </trkpt>
      <trkpt lat="47.18161" lon="4.87401">
        <ele>395</ele>
        <time>2021-02-14T16:05:07.000Z</time>
      </trkpt>
      <trkpt lat="47.18154" lon="4.8741">
        <ele>394</ele>
        <time>2021-02-14T16:05:16.000Z</time>
      </trkpt>
      <trkpt lat="47.18148" lon="4.8742">
        <ele>393</ele>
        <time>2021-02-14T16:05:25.000Z</time>
      </trkpt>
      <trkpt lat="47.18141" lon="4.87429">
        <ele>392</ele>
        <time>2021-02-14T16:05:32.000Z</time>
      </trkpt>
      <trkpt lat="47.18135" lon="4.87442">
        <ele>391</ele>
        <time>2021-02-14T16:05:44.000Z</time>
      </trkpt>
      <trkpt lat="47.18128" lon="4.87451">
        <ele>391</ele>
        <time>2021-02-14T16:05:53.000Z</time>
      </trkpt>
      <trkpt lat="47.18122" lon="4.87461">
        <ele>390</ele>
        <time>2021-02-14T16:06:00.000Z</time>
      </trkpt>
      <trkpt lat="47.18114" lon="4.87473">
        <ele>389</ele>
        <time>2021-02-14T16:06:08.000Z</time>
      </trkpt>
      <trkpt lat="47.18108" lon="4.87483">
        <ele>387</ele>
        <time>2021-02-14T16:06:15.000Z</time>
      </trkpt>
      <trkpt lat="47.18101" lon="4.87494">
        <ele>385</ele>
        <time>2021-02-14T16:06:22.000Z</time>
      </trkpt>
      <trkpt lat="47.18095" lon="4.87505">
        <ele>382</ele>
        <time>2021-02-14T16:06:30.000Z</time>
      </trkpt>
      <trkpt lat="47.18088" lon="4.87516">
        <ele>383</ele>
        <time>2021-02-14T16:06:40.000Z</time>
      </trkpt>
      <trkpt lat="47.18079" lon="4.87528">
        <ele>385</ele>
        <time>2021-02-14T16:06:50.000Z</time>
      </trkpt>
      <trkpt lat="47.18071" lon="4.87536">
        <ele>382</ele>
        <time>2021-02-14T16:06:57.000Z</time>
      </trkpt>
      <trkpt lat="47.18064" lon="4.87547">
        <ele>381</ele>
        <time>2021-02-14T16:07:05.000Z</time>
      </trkpt>
      <trkpt lat="47.18056" lon="4.87555">
        <ele>381</ele>
        <time>2021-02-14T16:07:13.000Z</time>
      </trkpt>
      <trkpt lat="47.18048" lon="4.87561">
        <ele>378</ele>
        <time>2021-02-14T16:07:19.000Z</time>
      </trkpt>
      <trkpt lat="47.18041" lon="4.8757">
        <ele>378</ele>
        <time>2021-02-14T16:07:27.000Z</time>
      </trkpt>
      <trkpt lat="47.18032" lon="4.87578">
        <ele>377</ele>
        <time>2021-02-14T16:07:35.000Z</time>
      </trkpt>
      <trkpt lat="47.18024" lon="4.87585">
        <ele>377</ele>
        <time>2021-02-14T16:07:44.000Z</time>
      </trkpt>
      <trkpt lat="47.18015" lon="4.87594">
        <ele>378</ele>
        <time>2021-02-14T16:07:54.000Z</time>
      </trkpt>
      <trkpt lat="47.18006" lon="4.87601">
        <ele>378</ele>
        <time>2021-02-14T16:08:01.000Z</time>
      </trkpt>
      <trkpt lat="47.17997" lon="4.87606">
        <ele>378</ele>
        <time>2021-02-14T16:08:08.000Z</time>
      </trkpt>
      <trkpt lat="47.17988" lon="4.87611">
        <ele>379</ele>
        <time>2021-02-14T16:08:17.000Z</time>
      </trkpt>
      <trkpt lat="47.17976" lon="4.87611">
        <ele>377</ele>
        <time>2021-02-14T16:08:28.000Z</time>
      </trkpt>
      <trkpt lat="47.17966" lon="4.87608">
        <ele>377</ele>
        <time>2021-02-14T16:08:36.000Z</time>
      </trkpt>
      <trkpt lat="47.17956" lon="4.87603">
        <ele>378</ele>
        <time>2021-02-14T16:08:46.000Z</time>
      </trkpt>
      <trkpt lat="47.17946" lon="4.87601">
        <ele>376</ele>
        <time>2021-02-14T16:08:54.000Z</time>
      </trkpt>
      <trkpt lat="47.17937" lon="4.87601">
        <ele>377</ele>
        <time>2021-02-14T16:09:02.000Z</time>
      </trkpt>
      <trkpt lat="47.17927" lon="4.87608">
        <ele>378</ele>
        <time>2021-02-14T16:09:12.000Z</time>
      </trkpt>
      <trkpt lat="47.1792" lon="4.87617">
        <ele>379</ele>
        <time>2021-02-14T16:09:21.000Z</time>
      </trkpt>
      <trkpt lat="47.17912" lon="4.87625">
        <ele>379</ele>
        <time>2021-02-14T16:09:29.000Z</time>
      </trkpt>
      <trkpt lat="47.17903" lon="4.8763">
        <ele>379</ele>
        <time>2021-02-14T16:09:36.000Z</time>
      </trkpt>
      <trkpt lat="47.17893" lon="4.87636">
        <ele>380</ele>
        <time>2021-02-14T16:09:47.000Z</time>
      </trkpt>
      <trkpt lat="47.17886" lon="4.87645">
        <ele>383</ele>
        <time>2021-02-14T16:09:56.000Z</time>
      </trkpt>
      <trkpt lat="47.17882" lon="4.87657">
        <ele>384</ele>
        <time>2021-02-14T16:10:03.000Z</time>
      </trkpt>
      <trkpt lat="47.17877" lon="4.8767">
        <ele>384</ele>
        <time>2021-02-14T16:10:11.000Z</time>
      </trkpt>
      <trkpt lat="47.17871" lon="4.87684">
        <ele>384</ele>
        <time>2021-02-14T16:10:20.000Z</time>
      </trkpt>
      <trkpt lat="47.17865" lon="4.87695">
        <ele>382</ele>
        <time>2021-02-14T16:10:28.000Z</time>
      </trkpt>
      <trkpt lat="47.17858" lon="4.87703">
        <ele>383</ele>
        <time>2021-02-14T16:10:36.000Z</time>
      </trkpt>
      <trkpt lat="47.17856" lon="4.87716">
        <ele>379</ele>
        <time>2021-02-14T16:10:43.000Z</time>
      </trkpt>
      <trkpt lat="47.17854" lon="4.8773">
        <ele>379</ele>
        <time>2021-02-14T16:10:50.000Z</time>
      </trkpt>
      <trkpt lat="47.17852" lon="4.87745">
        <ele>375</ele>
        <time>2021-02-14T16:10:57.000Z</time>
      </trkpt>
      <trkpt lat="47.17846" lon="4.87756">
        <ele>374</ele>
        <time>2021-02-14T16:11:04.000Z</time>
      </trkpt>
      <trkpt lat="47.17841" lon="4.8777">
        <ele>369</ele>
        <time>2021-02-14T16:11:13.000Z</time>
      </trkpt>
      <trkpt lat="47.17836" lon="4.87783">
        <ele>371</ele>
        <time>2021-02-14T16:11:22.000Z</time>
      </trkpt>
      <trkpt lat="47.17829" lon="4.87795">
        <ele>383</ele>
        <time>2021-02-14T16:11:33.000Z</time>
      </trkpt>
      <trkpt lat="47.17824" lon="4.87805">
        <ele>370</ele>
        <time>2021-02-14T16:11:39.000Z</time>
      </trkpt>
      <trkpt lat="47.17816" lon="4.87814">
        <ele>368</ele>
        <time>2021-02-14T16:11:47.000Z</time>
      </trkpt>
      <trkpt lat="47.17811" lon="4.87829">
        <ele>370</ele>
        <time>2021-02-14T16:11:57.000Z</time>
      </trkpt>
      <trkpt lat="47.17804" lon="4.87837">
        <ele>368</ele>
        <time>2021-02-14T16:12:06.000Z</time>
      </trkpt>
      <trkpt lat="47.17797" lon="4.87846">
        <ele>371</ele>
        <time>2021-02-14T16:12:15.000Z</time>
      </trkpt>
      <trkpt lat="47.17788" lon="4.87856">
        <ele>365</ele>
        <time>2021-02-14T16:12:23.000Z</time>
      </trkpt>
      <trkpt lat="47.17781" lon="4.87869">
        <ele>366</ele>
        <time>2021-02-14T16:12:31.000Z</time>
      </trkpt>
      <trkpt lat="47.17774" lon="4.87877">
        <ele>366</ele>
        <time>2021-02-14T16:12:39.000Z</time>
      </trkpt>
      <trkpt lat="47.17768" lon="4.87892">
        <ele>364</ele>
        <time>2021-02-14T16:12:48.000Z</time>
      </trkpt>
      <trkpt lat="47.17762" lon="4.87905">
        <ele>365</ele>
        <time>2021-02-14T16:12:57.000Z</time>
      </trkpt>
      <trkpt lat="47.17756" lon="4.87915">
        <ele>363</ele>
        <time>2021-02-14T16:13:04.000Z</time>
      </trkpt>
      <trkpt lat="47.17747" lon="4.8792">
        <ele>368</ele>
        <time>2021-02-14T16:13:14.000Z</time>
      </trkpt>
      <trkpt lat="47.17739" lon="4.87916">
        <ele>369</ele>
        <time>2021-02-14T16:13:33.000Z</time>
      </trkpt>
      <trkpt lat="47.17729" lon="4.87916">
        <ele>371</ele>
        <time>2021-02-14T16:13:42.000Z</time>
      </trkpt>
      <trkpt lat="47.17716" lon="4.87918">
        <ele>367</ele>
        <time>2021-02-14T16:13:51.000Z</time>
      </trkpt>
      <trkpt lat="47.17708" lon="4.87928">
        <ele>368</ele>
        <time>2021-02-14T16:13:57.000Z</time>
      </trkpt>
      <trkpt lat="47.17702" lon="4.8794">
        <ele>369</ele>
        <time>2021-02-14T16:14:06.000Z</time>
      </trkpt>
      <trkpt lat="47.17693" lon="4.87943">
        <ele>366</ele>
        <time>2021-02-14T16:14:22.000Z</time>
      </trkpt>
      <trkpt lat="47.17689" lon="4.87956">
        <ele>369</ele>
        <time>2021-02-14T16:14:36.000Z</time>
      </trkpt>
      <trkpt lat="47.17691" lon="4.87969">
        <ele>368</ele>
        <time>2021-02-14T16:14:44.000Z</time>
      </trkpt>
      <trkpt lat="47.17691" lon="4.87987">
        <ele>370</ele>
        <time>2021-02-14T16:14:59.000Z</time>
      </trkpt>
      <trkpt lat="47.17697" lon="4.88001">
        <ele>372</ele>
        <time>2021-02-14T16:15:09.000Z</time>
      </trkpt>
      <trkpt lat="47.17706" lon="4.88014">
        <ele>373</ele>
        <time>2021-02-14T16:15:18.000Z</time>
      </trkpt>
      <trkpt lat="47.17711" lon="4.88026">
        <ele>378</ele>
        <time>2021-02-14T16:15:37.000Z</time>
      </trkpt>
      <trkpt lat="47.17719" lon="4.88034">
        <ele>376</ele>
        <time>2021-02-14T16:15:45.000Z</time>
      </trkpt>
      <trkpt lat="47.17721" lon="4.88047">
        <ele>386</ele>
        <time>2021-02-14T16:15:57.000Z</time>
      </trkpt>
      <trkpt lat="47.17724" lon="4.8806">
        <ele>384</ele>
        <time>2021-02-14T16:16:17.000Z</time>
      </trkpt>
      <trkpt lat="47.17722" lon="4.88074">
        <ele>395</ele>
        <time>2021-02-14T16:16:37.000Z</time>
      </trkpt>
      <trkpt lat="47.17724" lon="4.88088">
        <ele>401</ele>
        <time>2021-02-14T16:17:07.000Z</time>
      </trkpt>
      <trkpt lat="47.1772" lon="4.881">
        <ele>398</ele>
        <time>2021-02-14T16:17:23.000Z</time>
      </trkpt>
      <trkpt lat="47.17719" lon="4.88115">
        <ele>402</ele>
        <time>2021-02-14T16:17:35.000Z</time>
      </trkpt>
      <trkpt lat="47.1772" lon="4.88128">
        <ele>402</ele>
        <time>2021-02-14T16:17:54.000Z</time>
      </trkpt>
      <trkpt lat="47.17722" lon="4.88142">
        <ele>400</ele>
        <time>2021-02-14T16:18:03.000Z</time>
      </trkpt>
      <trkpt lat="47.17719" lon="4.88155">
        <ele>405</ele>
        <time>2021-02-14T16:18:18.000Z</time>
      </trkpt>
      <trkpt lat="47.17718" lon="4.88169">
        <ele>407</ele>
        <time>2021-02-14T16:18:45.000Z</time>
      </trkpt>
      <trkpt lat="47.17719" lon="4.88183">
        <ele>406</ele>
        <time>2021-02-14T16:18:57.000Z</time>
      </trkpt>
      <trkpt lat="47.17719" lon="4.88197">
        <ele>409</ele>
        <time>2021-02-14T16:19:12.000Z</time>
      </trkpt>
      <trkpt lat="47.17719" lon="4.88221">
        <ele>414</ele>
        <time>2021-02-14T16:19:34.000Z</time>
      </trkpt>
      <trkpt lat="47.17717" lon="4.88234">
        <ele>417</ele>
        <time>2021-02-14T16:19:45.000Z</time>
      </trkpt>
      <trkpt lat="47.17718" lon="4.88248">
        <ele>417</ele>
        <time>2021-02-14T16:19:59.000Z</time>
      </trkpt>
      <trkpt lat="47.1772" lon="4.88261">
        <ele>417</ele>
        <time>2021-02-14T16:20:13.000Z</time>
      </trkpt>
      <trkpt lat="47.17724" lon="4.88274">
        <ele>423</ele>
        <time>2021-02-14T16:20:33.000Z</time>
      </trkpt>
      <trkpt lat="47.17725" lon="4.88287">
        <ele>423</ele>
        <time>2021-02-14T16:20:50.000Z</time>
      </trkpt>
      <trkpt lat="47.1773" lon="4.88299">
        <ele>421</ele>
        <time>2021-02-14T16:21:12.000Z</time>
      </trkpt>
      <trkpt lat="47.17737" lon="4.88309">
        <ele>426</ele>
        <time>2021-02-14T16:21:52.000Z</time>
      </trkpt>
      <trkpt lat="47.17742" lon="4.8832">
        <ele>427</ele>
        <time>2021-02-14T16:22:05.000Z</time>
      </trkpt>
      <trkpt lat="47.17748" lon="4.88332">
        <ele>432</ele>
        <time>2021-02-14T16:22:19.000Z</time>
      </trkpt>
      <trkpt lat="47.17755" lon="4.88343">
        <ele>432</ele>
        <time>2021-02-14T16:22:31.000Z</time>
      </trkpt>
      <trkpt lat="47.17761" lon="4.88359">
        <ele>434</ele>
        <time>2021-02-14T16:23:00.000Z</time>
      </trkpt>
      <trkpt lat="47.17768" lon="4.8837">
        <ele>455</ele>
        <time>2021-02-14T16:23:09.000Z</time>
      </trkpt>
      <trkpt lat="47.17777" lon="4.88381">
        <ele>433</ele>
        <time>2021-02-14T16:23:26.000Z</time>
      </trkpt>
      <trkpt lat="47.17779" lon="4.88395">
        <ele>432</ele>
        <time>2021-02-14T16:23:38.000Z</time>
      </trkpt>
      <trkpt lat="47.17785" lon="4.88404">
        <ele>431</ele>
        <time>2021-02-14T16:23:47.000Z</time>
      </trkpt>
      <trkpt lat="47.1779" lon="4.88417">
        <ele>433</ele>
        <time>2021-02-14T16:24:04.000Z</time>
      </trkpt>
      <trkpt lat="47.17797" lon="4.88429">
        <ele>433</ele>
        <time>2021-02-14T16:24:16.000Z</time>
      </trkpt>
      <trkpt lat="47.17805" lon="4.88437">
        <ele>434</ele>
        <time>2021-02-14T16:24:29.000Z</time>
      </trkpt>
      <trkpt lat="47.17814" lon="4.88448">
        <ele>439</ele>
        <time>2021-02-14T16:24:50.000Z</time>
      </trkpt>
      <trkpt lat="47.17821" lon="4.88455">
        <ele>444</ele>
        <time>2021-02-14T16:25:14.000Z</time>
      </trkpt>
      <trkpt lat="47.1783" lon="4.8846">
        <ele>444</ele>
        <time>2021-02-14T16:25:26.000Z</time>
      </trkpt>
      <trkpt lat="47.17838" lon="4.88471">
        <ele>448</ele>
        <time>2021-02-14T16:25:43.000Z</time>
      </trkpt>
      <trkpt lat="47.17844" lon="4.88483">
        <ele>451</ele>
        <time>2021-02-14T16:26:05.000Z</time>
      </trkpt>
      <trkpt lat="47.1785" lon="4.88493">
        <ele>453</ele>
        <time>2021-02-14T16:26:20.000Z</time>
      </trkpt>
      <trkpt lat="47.17858" lon="4.88502">
        <ele>452</ele>
        <time>2021-02-14T16:26:47.000Z</time>
      </trkpt>
      <trkpt lat="47.17865" lon="4.88513">
        <ele>456</ele>
        <time>2021-02-14T16:27:07.000Z</time>
      </trkpt>
      <trkpt lat="47.17874" lon="4.88521">
        <ele>460</ele>
        <time>2021-02-14T16:27:31.000Z</time>
      </trkpt>
      <trkpt lat="47.1788" lon="4.88533">
        <ele>466</ele>
        <time>2021-02-14T16:27:46.000Z</time>
      </trkpt>
      <trkpt lat="47.17886" lon="4.88543">
        <ele>471</ele>
        <time>2021-02-14T16:28:04.000Z</time>
      </trkpt>
      <trkpt lat="47.17893" lon="4.88551">
        <ele>471</ele>
        <time>2021-02-14T16:28:18.000Z</time>
      </trkpt>
      <trkpt lat="47.17903" lon="4.88554">
        <ele>477</ele>
        <time>2021-02-14T16:28:31.000Z</time>
      </trkpt>
      <trkpt lat="47.1791" lon="4.88564">
        <ele>472</ele>
        <time>2021-02-14T16:28:57.000Z</time>
      </trkpt>
      <trkpt lat="47.17918" lon="4.88575">
        <ele>471</ele>
        <time>2021-02-14T16:29:21.000Z</time>
      </trkpt>
      <trkpt lat="47.17928" lon="4.8858">
        <ele>471</ele>
        <time>2021-02-14T16:29:33.000Z</time>
      </trkpt>
      <trkpt lat="47.17937" lon="4.8859">
        <ele>469</ele>
        <time>2021-02-14T16:29:51.000Z</time>
      </trkpt>
      <trkpt lat="47.17945" lon="4.88599">
        <ele>469</ele>
        <time>2021-02-14T16:30:09.000Z</time>
      </trkpt>
      <trkpt lat="47.17953" lon="4.88609">
        <ele>472</ele>
        <time>2021-02-14T16:30:26.000Z</time>
      </trkpt>
      <trkpt lat="47.17963" lon="4.88614">
        <ele>473</ele>
        <time>2021-02-14T16:30:41.000Z</time>
      </trkpt>
      <trkpt lat="47.17972" lon="4.88622">
        <ele>473</ele>
        <time>2021-02-14T16:30:56.000Z</time>
      </trkpt>
      <trkpt lat="47.17981" lon="4.88629">
        <ele>475</ele>
        <time>2021-02-14T16:31:09.000Z</time>
      </trkpt>
      <trkpt lat="47.17988" lon="4.88639">
        <ele>477</ele>
        <time>2021-02-14T16:31:37.000Z</time>
      </trkpt>
      <trkpt lat="47.17993" lon="4.88651">
        <ele>477</ele>
        <time>2021-02-14T16:32:13.000Z</time>
      </trkpt>
      <trkpt lat="47.17999" lon="4.88663">
        <ele>480</ele>
        <time>2021-02-14T16:32:27.000Z</time>
      </trkpt>
      <trkpt lat="47.18004" lon="4.88675">
        <ele>480</ele>
        <time>2021-02-14T16:32:39.000Z</time>
      </trkpt>
      <trkpt lat="47.1801" lon="4.88686">
        <ele>486</ele>
        <time>2021-02-14T16:32:54.000Z</time>
      </trkpt>
      <trkpt lat="47.18015" lon="4.88697">
        <ele>484</ele>
        <time>2021-02-14T16:33:12.000Z</time>
      </trkpt>
      <trkpt lat="47.18016" lon="4.88713">
        <ele>487</ele>
        <time>2021-02-14T16:33:30.000Z</time>
      </trkpt>
      <trkpt lat="47.18017" lon="4.88728">
        <ele>488</ele>
        <time>2021-02-14T16:33:54.000Z</time>
      </trkpt>
      <trkpt lat="47.18017" lon="4.88741">
        <ele>492</ele>
        <time>2021-02-14T16:34:38.000Z</time>
      </trkpt>
      <trkpt lat="47.18009" lon="4.88749">
        <ele>490</ele>
        <time>2021-02-14T16:35:02.000Z</time>
      </trkpt>
      <trkpt lat="47.18002" lon="4.88759">
        <ele>495</ele>
        <time>2021-02-14T16:35:35.000Z</time>
      </trkpt>
      <trkpt lat="47.17996" lon="4.88768">
        <ele>505</ele>
        <time>2021-02-14T16:36:30.000Z</time>
      </trkpt>
      <trkpt lat="47.17988" lon="4.88777">
        <ele>506</ele>
        <time>2021-02-14T16:36:52.000Z</time>
      </trkpt>
      <trkpt lat="47.17981" lon="4.88783">
        <ele>499</ele>
        <time>2021-02-14T16:37:05.000Z</time>
      </trkpt>
      <trkpt lat="47.1797" lon="4.8879">
        <ele>507</ele>
        <time>2021-02-14T16:37:26.000Z</time>
      </trkpt>
      <trkpt lat="47.17964" lon="4.88805">
        <ele>509</ele>
        <time>2021-02-14T16:37:57.000Z</time>
      </trkpt>
      <trkpt lat="47.17955" lon="4.88809">
        <ele>514</ele>
        <time>2021-02-14T16:38:11.000Z</time>
      </trkpt>
      <trkpt lat="47.17945" lon="4.88817">
        <ele>515</ele>
        <time>2021-02-14T16:38:23.000Z</time>
      </trkpt>
      <trkpt lat="47.17937" lon="4.88823">
        <ele>519</ele>
        <time>2021-02-14T16:38:50.000Z</time>
      </trkpt>
      <trkpt lat="47.17928" lon="4.88831">
        <ele>519</ele>
        <time>2021-02-14T16:39:13.000Z</time>
      </trkpt>
      <trkpt lat="47.17923" lon="4.88842">
        <ele>520</ele>
        <time>2021-02-14T16:39:39.000Z</time>
      </trkpt>
      <trkpt lat="47.17925" lon="4.88856">
        <ele>523</ele>
        <time>2021-02-14T16:39:51.000Z</time>
      </trkpt>
      <trkpt lat="47.17928" lon="4.88871">
        <ele>525</ele>
        <time>2021-02-14T16:40:11.000Z</time>
      </trkpt>
      <trkpt lat="47.17932" lon="4.88885">
        <ele>528</ele>
        <time>2021-02-14T16:40:28.000Z</time>
      </trkpt>
      <trkpt lat="47.17937" lon="4.88897">
        <ele>533</ele>
        <time>2021-02-14T16:40:41.000Z</time>
      </trkpt>
      <trkpt lat="47.17944" lon="4.88908">
        <ele>533</ele>
        <time>2021-02-14T16:41:04.000Z</time>
      </trkpt>
      <trkpt lat="47.17952" lon="4.88917">
        <ele>533</ele>
        <time>2021-02-14T16:41:15.000Z</time>
      </trkpt>
      <trkpt lat="47.1796" lon="4.88924">
        <ele>526</ele>
        <time>2021-02-14T16:41:25.000Z</time>
      </trkpt>
      <trkpt lat="47.17967" lon="4.88935">
        <ele>534</ele>
        <time>2021-02-14T16:41:37.000Z</time>
      </trkpt>
      <trkpt lat="47.17974" lon="4.88945">
        <ele>535</ele>
        <time>2021-02-14T16:41:44.000Z</time>
      </trkpt>
      <trkpt lat="47.17978" lon="4.88958">
        <ele>532</ele>
        <time>2021-02-14T16:42:02.000Z</time>
      </trkpt>
      <trkpt lat="47.17986" lon="4.88967">
        <ele>532</ele>
        <time>2021-02-14T16:42:10.000Z</time>
      </trkpt>
      <trkpt lat="47.17987" lon="4.88981">
        <ele>529</ele>
        <time>2021-02-14T16:42:22.000Z</time>
      </trkpt>
      <trkpt lat="47.17995" lon="4.8899">
        <ele>526</ele>
        <time>2021-02-14T16:42:34.000Z</time>
      </trkpt>
      <trkpt lat="47.18004" lon="4.88991">
        <ele>520</ele>
        <time>2021-02-14T16:42:50.000Z</time>
      </trkpt>
      <trkpt lat="47.18014" lon="4.88988">
        <ele>519</ele>
        <time>2021-02-14T16:42:57.000Z</time>
      </trkpt>
      <trkpt lat="47.18024" lon="4.88986">
        <ele>518</ele>
        <time>2021-02-14T16:43:13.000Z</time>
      </trkpt>
      <trkpt lat="47.18033" lon="4.88994">
        <ele>522</ele>
        <time>2021-02-14T16:43:26.000Z</time>
      </trkpt>
      <trkpt lat="47.18044" lon="4.88998">
        <ele>518</ele>
        <time>2021-02-14T16:43:37.000Z</time>
      </trkpt>
      <trkpt lat="47.18052" lon="4.89002">
        <ele>521</ele>
        <time>2021-02-14T16:43:47.000Z</time>
      </trkpt>
      <trkpt lat="47.18062" lon="4.89009">
        <ele>517</ele>
        <time>2021-02-14T16:43:59.000Z</time>
      </trkpt>
      <trkpt lat="47.1807" lon="4.89014">
        <ele>514</ele>
        <time>2021-02-14T16:44:09.000Z</time>
      </trkpt>
      <trkpt lat="47.18079" lon="4.89019">
        <ele>513</ele>
        <time>2021-02-14T16:44:17.000Z</time>
      </trkpt>
      <trkpt lat="47.1809" lon="4.89023">
        <ele>515</ele>
        <time>2021-02-14T16:44:27.000Z</time>
      </trkpt>
      <trkpt lat="47.18099" lon="4.8903">
        <ele>511</ele>
        <time>2021-02-14T16:44:35.000Z</time>
      </trkpt>
      <trkpt lat="47.18107" lon="4.89033">
        <ele>510</ele>
        <time>2021-02-14T16:44:43.000Z</time>
      </trkpt>
      <trkpt lat="47.18116" lon="4.89043">
        <ele>510</ele>
        <time>2021-02-14T16:44:54.000Z</time>
      </trkpt>
      <trkpt lat="47.18125" lon="4.89051">
        <ele>507</ele>
        <time>2021-02-14T16:45:03.000Z</time>
      </trkpt>
      <trkpt lat="47.18133" lon="4.89058">
        <ele>499</ele>
        <time>2021-02-14T16:45:11.000Z</time>
      </trkpt>
      <trkpt lat="47.18141" lon="4.89069">
        <ele>496</ele>
        <time>2021-02-14T16:45:18.000Z</time>
      </trkpt>
      <trkpt lat="47.1815" lon="4.89077">
        <ele>494</ele>
        <time>2021-02-14T16:45:27.000Z</time>
      </trkpt>
      <trkpt lat="47.18159" lon="4.89086">
        <ele>495</ele>
        <time>2021-02-14T16:45:35.000Z</time>
      </trkpt>
      <trkpt lat="47.18167" lon="4.89095">
        <ele>497</ele>
        <time>2021-02-14T16:45:42.000Z</time>
      </trkpt>
      <trkpt lat="47.18175" lon="4.89105">
        <ele>493</ele>
        <time>2021-02-14T16:45:50.000Z</time>
      </trkpt>
      <trkpt lat="47.18182" lon="4.89114">
        <ele>493</ele>
        <time>2021-02-14T16:45:56.000Z</time>
      </trkpt>
      <trkpt lat="47.1819" lon="4.89121">
        <ele>492</ele>
        <time>2021-02-14T16:46:01.000Z</time>
      </trkpt>
      <trkpt lat="47.18197" lon="4.8913">
        <ele>490</ele>
        <time>2021-02-14T16:46:07.000Z</time>
      </trkpt>
      <trkpt lat="47.18207" lon="4.89139">
        <ele>490</ele>
        <time>2021-02-14T16:46:16.000Z</time>
      </trkpt>
      <trkpt lat="47.18217" lon="4.89148">
        <ele>489</ele>
        <time>2021-02-14T16:46:24.000Z</time>
      </trkpt>
      <trkpt lat="47.18226" lon="4.89155">
        <ele>487</ele>
        <time>2021-02-14T16:46:30.000Z</time>
      </trkpt>
      <trkpt lat="47.18234" lon="4.89163">
        <ele>485</ele>
        <time>2021-02-14T16:46:37.000Z</time>
      </trkpt>
      <trkpt lat="47.18243" lon="4.89173">
        <ele>486</ele>
        <time>2021-02-14T16:46:45.000Z</time>
      </trkpt>
      <trkpt lat="47.1825" lon="4.89183">
        <ele>486</ele>
        <time>2021-02-14T16:46:53.000Z</time>
      </trkpt>
      <trkpt lat="47.18257" lon="4.89191">
        <ele>485</ele>
        <time>2021-02-14T16:47:00.000Z</time>
      </trkpt>
      <trkpt lat="47.18264" lon="4.89199">
        <ele>485</ele>
        <time>2021-02-14T16:47:08.000Z</time>
      </trkpt>
      <trkpt lat="47.18272" lon="4.89208">
        <ele>485</ele>
        <time>2021-02-14T16:47:16.000Z</time>
      </trkpt>
      <trkpt lat="47.18281" lon="4.89215">
        <ele>487</ele>
        <time>2021-02-14T16:47:25.000Z</time>
      </trkpt>
      <trkpt lat="47.18289" lon="4.89221">
        <ele>487</ele>
        <time>2021-02-14T16:47:32.000Z</time>
      </trkpt>
      <trkpt lat="47.18299" lon="4.8923">
        <ele>483</ele>
        <time>2021-02-14T16:47:41.000Z</time>
      </trkpt>
      <trkpt lat="47.18307" lon="4.89238">
        <ele>480</ele>
        <time>2021-02-14T16:47:48.000Z</time>
      </trkpt>
      <trkpt lat="47.18317" lon="4.89246">
        <ele>473</ele>
        <time>2021-02-14T16:47:56.000Z</time>
      </trkpt>
      <trkpt lat="47.18325" lon="4.8925">
        <ele>471</ele>
        <time>2021-02-14T16:48:03.000Z</time>
      </trkpt>
      <trkpt lat="47.18335" lon="4.89255">
        <ele>469</ele>
        <time>2021-02-14T16:48:10.000Z</time>
      </trkpt>
      <trkpt lat="47.18344" lon="4.89258">
        <ele>467</ele>
        <time>2021-02-14T16:48:17.000Z</time>
      </trkpt>
      <trkpt lat="47.18354" lon="4.89262">
        <ele>465</ele>
        <time>2021-02-14T16:48:24.000Z</time>
      </trkpt>
      <trkpt lat="47.18364" lon="4.89268">
        <ele>465</ele>
        <time>2021-02-14T16:48:31.000Z</time>
      </trkpt>
      <trkpt lat="47.18375" lon="4.89276">
        <ele>466</ele>
        <time>2021-02-14T16:48:40.000Z</time>
      </trkpt>
      <trkpt lat="47.18383" lon="4.89282">
        <ele>469</ele>
        <time>2021-02-14T16:48:49.000Z</time>
      </trkpt>
      <trkpt lat="47.18391" lon="4.8929">
        <ele>472</ele>
        <time>2021-02-14T16:48:56.000Z</time>
      </trkpt>
      <trkpt lat="47.184" lon="4.89299">
        <ele>468</ele>
        <time>2021-02-14T16:49:03.000Z</time>
      </trkpt>
      <trkpt lat="47.18409" lon="4.89306">
        <ele>468</ele>
        <time>2021-02-14T16:49:10.000Z</time>
      </trkpt>
      <trkpt lat="47.18418" lon="4.89311">
        <ele>469</ele>
        <time>2021-02-14T16:49:19.000Z</time>
      </trkpt>
      <trkpt lat="47.18427" lon="4.89316">
        <ele>470</ele>
        <time>2021-02-14T16:49:28.000Z</time>
      </trkpt>
      <trkpt lat="47.18436" lon="4.89321">
        <ele>469</ele>
        <time>2021-02-14T16:49:35.000Z</time>
      </trkpt>
      <trkpt lat="47.18446" lon="4.89327">
        <ele>467</ele>
        <time>2021-02-14T16:49:46.000Z</time>
      </trkpt>
      <trkpt lat="47.18454" lon="4.89334">
        <ele>465</ele>
        <time>2021-02-14T16:49:54.000Z</time>
      </trkpt>
      <trkpt lat="47.18464" lon="4.89335">
        <ele>469</ele>
        <time>2021-02-14T16:50:00.000Z</time>
      </trkpt>
      <trkpt lat="47.18474" lon="4.8934">
        <ele>469</ele>
        <time>2021-02-14T16:50:07.000Z</time>
      </trkpt>
      <trkpt lat="47.18485" lon="4.89347">
        <ele>471</ele>
        <time>2021-02-14T16:50:16.000Z</time>
      </trkpt>
      <trkpt lat="47.18495" lon="4.89353">
        <ele>471</ele>
        <time>2021-02-14T16:50:24.000Z</time>
      </trkpt>
      <trkpt lat="47.18505" lon="4.89358">
        <ele>472</ele>
        <time>2021-02-14T16:50:31.000Z</time>
      </trkpt>
      <trkpt lat="47.18514" lon="4.89363">
        <ele>469</ele>
        <time>2021-02-14T16:50:37.000Z</time>
      </trkpt>
      <trkpt lat="47.18523" lon="4.89369">
        <ele>467</ele>
        <time>2021-02-14T16:50:44.000Z</time>
      </trkpt>
      <trkpt lat="47.18531" lon="4.89375">
        <ele>465</ele>
        <time>2021-02-14T16:50:51.000Z</time>
      </trkpt>
      <trkpt lat="47.18542" lon="4.89382">
        <ele>462</ele>
        <time>2021-02-14T16:51:00.000Z</time>
      </trkpt>
      <trkpt lat="47.18551" lon="4.89387">
        <ele>461</ele>
        <time>2021-02-14T16:51:06.000Z</time>
      </trkpt>
      <trkpt lat="47.18562" lon="4.89393">
        <ele>464</ele>
        <time>2021-02-14T16:51:13.000Z</time>
      </trkpt>
      <trkpt lat="47.18569" lon="4.89401">
        <ele>467</ele>
        <time>2021-02-14T16:51:20.000Z</time>
      </trkpt>
      <trkpt lat="47.1858" lon="4.89408">
        <ele>468</ele>
        <time>2021-02-14T16:51:30.000Z</time>
      </trkpt>
      <trkpt lat="47.1859" lon="4.89415">
        <ele>471</ele>
        <time>2021-02-14T16:51:39.000Z</time>
      </trkpt>
      <trkpt lat="47.186" lon="4.8942">
        <ele>470</ele>
        <time>2021-02-14T16:51:46.000Z</time>
      </trkpt>
      <trkpt lat="47.18608" lon="4.89429">
        <ele>467</ele>
        <time>2021-02-14T16:51:52.000Z</time>
      </trkpt>
      <trkpt lat="47.18611" lon="4.89443">
        <ele>471</ele>
        <time>2021-02-14T16:51:59.000Z</time>
      </trkpt>
      <trkpt lat="47.18607" lon="4.89458">
        <ele>464</ele>
        <time>2021-02-14T16:52:07.000Z</time>
      </trkpt>
      <trkpt lat="47.18602" lon="4.89472">
        <ele>465</ele>
        <time>2021-02-14T16:52:14.000Z</time>
      </trkpt>
      <trkpt lat="47.18598" lon="4.89485">
        <ele>463</ele>
        <time>2021-02-14T16:52:22.000Z</time>
      </trkpt>
      <trkpt lat="47.18593" lon="4.89499">
        <ele>465</ele>
        <time>2021-02-14T16:52:31.000Z</time>
      </trkpt>
      <trkpt lat="47.18587" lon="4.89509">
        <ele>466</ele>
        <time>2021-02-14T16:52:38.000Z</time>
      </trkpt>
      <trkpt lat="47.18585" lon="4.89522">
        <ele>466</ele>
        <time>2021-02-14T16:52:46.000Z</time>
      </trkpt>
      <trkpt lat="47.1858" lon="4.89534">
        <ele>465</ele>
        <time>2021-02-14T16:52:54.000Z</time>
      </trkpt>
      <trkpt lat="47.18577" lon="4.89549">
        <ele>465</ele>
        <time>2021-02-14T16:53:03.000Z</time>
      </trkpt>
      <trkpt lat="47.1858" lon="4.89562">
        <ele>468</ele>
        <time>2021-02-14T16:53:13.000Z</time>
      </trkpt>
      <trkpt lat="47.18589" lon="4.89565">
        <ele>469</ele>
        <time>2021-02-14T16:53:20.000Z</time>
      </trkpt>
      <trkpt lat="47.18599" lon="4.89568">
        <ele>475</ele>
        <time>2021-02-14T16:53:31.000Z</time>
      </trkpt>
    </trkseg>
  </trk>
</gpx>